<?xml version="1.0" encoding="UTF-8" standalone="no" ?>
<gpx xmlns="http://www.topografix.com/GPX/1/1" xmlns:xsi="http://www.w3.org/2001/XMLSchema-instance" xsi:schemaLocation="http://www.topografix.com/GPX/1/1 http://www.topografix.com/GPX/1/1/gpx.xsd" version="1.1" creator="VisuGPX - https://www.visugpx.com">
  <metadata>
    <name>BOIS DE ROCHEFORT 10</name>
  </metadata>
  <trk>
    <name><![CDATA[BOIS DE ROCHEFORT 10]]></name>
    <trkseg>
      <trkpt lat="48.59228" lon="1.96637">
        <ele>-10.92</ele>
        <time>2021-03-18T08:06:46Z</time>
      </trkpt>
      <trkpt lat="48.59226" lon="1.96637">
        <ele>-11.4</ele>
        <time>2021-03-18T08:06:47Z</time>
      </trkpt>
      <trkpt lat="48.59196" lon="1.96611">
        <ele>-11.4</ele>
        <time>2021-03-18T08:07:02Z</time>
      </trkpt>
      <trkpt lat="48.5919" lon="1.96602">
        <ele>-10.92</ele>
        <time>2021-03-18T08:07:14Z</time>
      </trkpt>
      <trkpt lat="48.59186" lon="1.96595">
        <ele>-9.96</ele>
        <time>2021-03-18T08:07:28Z</time>
      </trkpt>
      <trkpt lat="48.59184" lon="1.96591">
        <ele>-9</ele>
        <time>2021-03-18T08:07:39Z</time>
      </trkpt>
      <trkpt lat="48.59177" lon="1.96586">
        <ele>-8.51</ele>
        <time>2021-03-18T08:07:52Z</time>
      </trkpt>
      <trkpt lat="48.59177" lon="1.96585">
        <ele>-7.55</ele>
        <time>2021-03-18T08:08:04Z</time>
      </trkpt>
      <trkpt lat="48.59175" lon="1.96586">
        <ele>-6.11</ele>
        <time>2021-03-18T08:08:21Z</time>
      </trkpt>
      <trkpt lat="48.59175" lon="1.96587">
        <ele>-3.23</ele>
        <time>2021-03-18T08:08:29Z</time>
      </trkpt>
      <trkpt lat="48.59175" lon="1.96587">
        <ele>-7.07</ele>
        <time>2021-03-18T08:08:30Z</time>
      </trkpt>
      <trkpt lat="48.59175" lon="1.96587">
        <ele>-4.19</ele>
        <time>2021-03-18T08:08:31Z</time>
      </trkpt>
      <trkpt lat="48.59175" lon="1.9659">
        <ele>-5.63</ele>
        <time>2021-03-18T08:08:50Z</time>
      </trkpt>
      <trkpt lat="48.59176" lon="1.96591">
        <ele>-3.23</ele>
        <time>2021-03-18T08:09:01Z</time>
      </trkpt>
      <trkpt lat="48.59178" lon="1.9659">
        <ele>-2.27</ele>
        <time>2021-03-18T08:09:16Z</time>
      </trkpt>
      <trkpt lat="48.59179" lon="1.96589">
        <ele>-0.82</ele>
        <time>2021-03-18T08:09:39Z</time>
      </trkpt>
      <trkpt lat="48.59178" lon="1.96589">
        <ele>0.62</ele>
        <time>2021-03-18T08:09:59Z</time>
      </trkpt>
      <trkpt lat="48.59178" lon="1.96595">
        <ele>2.06</ele>
        <time>2021-03-18T08:10:13Z</time>
      </trkpt>
      <trkpt lat="48.59175" lon="1.96599">
        <ele>3.5</ele>
        <time>2021-03-18T08:10:32Z</time>
      </trkpt>
      <trkpt lat="48.59174" lon="1.966">
        <ele>3.98</ele>
        <time>2021-03-18T08:10:36Z</time>
      </trkpt>
      <trkpt lat="48.59171" lon="1.96599">
        <ele>4.94</ele>
        <time>2021-03-18T08:10:50Z</time>
      </trkpt>
      <trkpt lat="48.5917" lon="1.96599">
        <ele>5.91</ele>
        <time>2021-03-18T08:11:04Z</time>
      </trkpt>
      <trkpt lat="48.59172" lon="1.96598">
        <ele>6.39</ele>
        <time>2021-03-18T08:11:21Z</time>
      </trkpt>
      <trkpt lat="48.59172" lon="1.96597">
        <ele>7.35</ele>
        <time>2021-03-18T08:11:35Z</time>
      </trkpt>
      <trkpt lat="48.5917" lon="1.96599">
        <ele>8.79</ele>
        <time>2021-03-18T08:11:52Z</time>
      </trkpt>
      <trkpt lat="48.59167" lon="1.96601">
        <ele>8.79</ele>
        <time>2021-03-18T08:12:09Z</time>
      </trkpt>
      <trkpt lat="48.59165" lon="1.96604">
        <ele>10.23</ele>
        <time>2021-03-18T08:12:23Z</time>
      </trkpt>
      <trkpt lat="48.59163" lon="1.9661">
        <ele>10.71</ele>
        <time>2021-03-18T08:12:39Z</time>
      </trkpt>
      <trkpt lat="48.59163" lon="1.9662">
        <ele>11.19</ele>
        <time>2021-03-18T08:12:44Z</time>
      </trkpt>
      <trkpt lat="48.59155" lon="1.96639">
        <ele>11.67</ele>
        <time>2021-03-18T08:12:56Z</time>
      </trkpt>
      <trkpt lat="48.59144" lon="1.96674">
        <ele>12.15</ele>
        <time>2021-03-18T08:13:09Z</time>
      </trkpt>
      <trkpt lat="48.59132" lon="1.96713">
        <ele>12.63</ele>
        <time>2021-03-18T08:13:22Z</time>
      </trkpt>
      <trkpt lat="48.59124" lon="1.96738">
        <ele>12.15</ele>
        <time>2021-03-18T08:13:34Z</time>
      </trkpt>
      <trkpt lat="48.59122" lon="1.96746">
        <ele>12.15</ele>
        <time>2021-03-18T08:13:38Z</time>
      </trkpt>
      <trkpt lat="48.59113" lon="1.9678">
        <ele>12.63</ele>
        <time>2021-03-18T08:13:52Z</time>
      </trkpt>
      <trkpt lat="48.59106" lon="1.96802">
        <ele>13.6</ele>
        <time>2021-03-18T08:14:05Z</time>
      </trkpt>
      <trkpt lat="48.591" lon="1.96826">
        <ele>14.08</ele>
        <time>2021-03-18T08:14:19Z</time>
      </trkpt>
      <trkpt lat="48.59094" lon="1.96844">
        <ele>14.08</ele>
        <time>2021-03-18T08:14:30Z</time>
      </trkpt>
      <trkpt lat="48.5909" lon="1.96867">
        <ele>14.08</ele>
        <time>2021-03-18T08:14:42Z</time>
      </trkpt>
      <trkpt lat="48.59086" lon="1.96889">
        <ele>15.04</ele>
        <time>2021-03-18T08:14:56Z</time>
      </trkpt>
      <trkpt lat="48.59078" lon="1.96912">
        <ele>15.52</ele>
        <time>2021-03-18T08:15:08Z</time>
      </trkpt>
      <trkpt lat="48.59072" lon="1.96945">
        <ele>16</ele>
        <time>2021-03-18T08:15:21Z</time>
      </trkpt>
      <trkpt lat="48.59062" lon="1.96984">
        <ele>16.48</ele>
        <time>2021-03-18T08:15:35Z</time>
      </trkpt>
      <trkpt lat="48.59059" lon="1.97019">
        <ele>16.48</ele>
        <time>2021-03-18T08:15:49Z</time>
      </trkpt>
      <trkpt lat="48.59052" lon="1.97053">
        <ele>16.48</ele>
        <time>2021-03-18T08:16:03Z</time>
      </trkpt>
      <trkpt lat="48.59047" lon="1.97091">
        <ele>16.96</ele>
        <time>2021-03-18T08:16:18Z</time>
      </trkpt>
      <trkpt lat="48.59038" lon="1.97126">
        <ele>16.96</ele>
        <time>2021-03-18T08:16:33Z</time>
      </trkpt>
      <trkpt lat="48.59031" lon="1.97152">
        <ele>17.44</ele>
        <time>2021-03-18T08:16:47Z</time>
      </trkpt>
      <trkpt lat="48.59023" lon="1.97175">
        <ele>17.44</ele>
        <time>2021-03-18T08:17:00Z</time>
      </trkpt>
      <trkpt lat="48.59019" lon="1.97194">
        <ele>17.44</ele>
        <time>2021-03-18T08:17:13Z</time>
      </trkpt>
      <trkpt lat="48.59018" lon="1.97201">
        <ele>17.92</ele>
        <time>2021-03-18T08:17:18Z</time>
      </trkpt>
      <trkpt lat="48.59018" lon="1.97233">
        <ele>18.88</ele>
        <time>2021-03-18T08:17:32Z</time>
      </trkpt>
      <trkpt lat="48.59018" lon="1.97253">
        <ele>19.36</ele>
        <time>2021-03-18T08:17:40Z</time>
      </trkpt>
      <trkpt lat="48.59033" lon="1.97279">
        <ele>20.32</ele>
        <time>2021-03-18T08:17:56Z</time>
      </trkpt>
      <trkpt lat="48.59048" lon="1.97298">
        <ele>21.29</ele>
        <time>2021-03-18T08:18:12Z</time>
      </trkpt>
      <trkpt lat="48.59062" lon="1.97306">
        <ele>22.25</ele>
        <time>2021-03-18T08:18:27Z</time>
      </trkpt>
      <trkpt lat="48.59069" lon="1.97302">
        <ele>22.73</ele>
        <time>2021-03-18T08:18:31Z</time>
      </trkpt>
      <trkpt lat="48.59086" lon="1.97292">
        <ele>24.17</ele>
        <time>2021-03-18T08:18:44Z</time>
      </trkpt>
      <trkpt lat="48.59087" lon="1.97291">
        <ele>23.69</ele>
        <time>2021-03-18T08:18:45Z</time>
      </trkpt>
      <trkpt lat="48.59099" lon="1.97278">
        <ele>24.17</ele>
        <time>2021-03-18T08:18:58Z</time>
      </trkpt>
      <trkpt lat="48.59101" lon="1.97276">
        <ele>24.65</ele>
        <time>2021-03-18T08:18:59Z</time>
      </trkpt>
      <trkpt lat="48.5911" lon="1.97259">
        <ele>24.65</ele>
        <time>2021-03-18T08:19:12Z</time>
      </trkpt>
      <trkpt lat="48.59121" lon="1.97237">
        <ele>25.13</ele>
        <time>2021-03-18T08:19:26Z</time>
      </trkpt>
      <trkpt lat="48.59134" lon="1.97216">
        <ele>26.09</ele>
        <time>2021-03-18T08:19:40Z</time>
      </trkpt>
      <trkpt lat="48.59144" lon="1.97196">
        <ele>27.53</ele>
        <time>2021-03-18T08:19:53Z</time>
      </trkpt>
      <trkpt lat="48.59154" lon="1.97175">
        <ele>28.98</ele>
        <time>2021-03-18T08:20:05Z</time>
      </trkpt>
      <trkpt lat="48.5916" lon="1.97165">
        <ele>29.46</ele>
        <time>2021-03-18T08:20:12Z</time>
      </trkpt>
      <trkpt lat="48.59168" lon="1.97152">
        <ele>29.46</ele>
        <time>2021-03-18T08:20:20Z</time>
      </trkpt>
      <trkpt lat="48.59178" lon="1.97134">
        <ele>29.94</ele>
        <time>2021-03-18T08:20:31Z</time>
      </trkpt>
      <trkpt lat="48.5919" lon="1.97106">
        <ele>30.9</ele>
        <time>2021-03-18T08:20:46Z</time>
      </trkpt>
      <trkpt lat="48.59203" lon="1.97083">
        <ele>31.86</ele>
        <time>2021-03-18T08:20:59Z</time>
      </trkpt>
      <trkpt lat="48.59207" lon="1.97075">
        <ele>31.86</ele>
        <time>2021-03-18T08:21:03Z</time>
      </trkpt>
      <trkpt lat="48.59211" lon="1.97065">
        <ele>31.86</ele>
        <time>2021-03-18T08:21:08Z</time>
      </trkpt>
      <trkpt lat="48.59215" lon="1.97058">
        <ele>31.86</ele>
        <time>2021-03-18T08:21:12Z</time>
      </trkpt>
      <trkpt lat="48.59227" lon="1.97039">
        <ele>32.34</ele>
        <time>2021-03-18T08:21:22Z</time>
      </trkpt>
      <trkpt lat="48.59233" lon="1.97032">
        <ele>32.82</ele>
        <time>2021-03-18T08:21:26Z</time>
      </trkpt>
      <trkpt lat="48.59237" lon="1.97024">
        <ele>33.3</ele>
        <time>2021-03-18T08:21:30Z</time>
      </trkpt>
      <trkpt lat="48.59249" lon="1.96998">
        <ele>35.71</ele>
        <time>2021-03-18T08:21:44Z</time>
      </trkpt>
      <trkpt lat="48.59261" lon="1.96975">
        <ele>39.07</ele>
        <time>2021-03-18T08:21:58Z</time>
      </trkpt>
      <trkpt lat="48.59269" lon="1.96958">
        <ele>40.03</ele>
        <time>2021-03-18T08:22:08Z</time>
      </trkpt>
      <trkpt lat="48.59273" lon="1.9695">
        <ele>40.51</ele>
        <time>2021-03-18T08:22:12Z</time>
      </trkpt>
      <trkpt lat="48.5928" lon="1.96936">
        <ele>42.44</ele>
        <time>2021-03-18T08:22:21Z</time>
      </trkpt>
      <trkpt lat="48.5929" lon="1.96916">
        <ele>45.32</ele>
        <time>2021-03-18T08:22:34Z</time>
      </trkpt>
      <trkpt lat="48.59296" lon="1.96905">
        <ele>47.72</ele>
        <time>2021-03-18T08:22:41Z</time>
      </trkpt>
      <trkpt lat="48.593" lon="1.96898">
        <ele>47.72</ele>
        <time>2021-03-18T08:22:46Z</time>
      </trkpt>
      <trkpt lat="48.59308" lon="1.96883">
        <ele>49.65</ele>
        <time>2021-03-18T08:22:58Z</time>
      </trkpt>
      <trkpt lat="48.59311" lon="1.96875">
        <ele>50.13</ele>
        <time>2021-03-18T08:23:02Z</time>
      </trkpt>
      <trkpt lat="48.59316" lon="1.96867">
        <ele>51.09</ele>
        <time>2021-03-18T08:23:08Z</time>
      </trkpt>
      <trkpt lat="48.59318" lon="1.96861">
        <ele>51.57</ele>
        <time>2021-03-18T08:23:11Z</time>
      </trkpt>
      <trkpt lat="48.59327" lon="1.96841">
        <ele>53.97</ele>
        <time>2021-03-18T08:23:24Z</time>
      </trkpt>
      <trkpt lat="48.59338" lon="1.96817">
        <ele>55.41</ele>
        <time>2021-03-18T08:23:37Z</time>
      </trkpt>
      <trkpt lat="48.59342" lon="1.96808">
        <ele>55.41</ele>
        <time>2021-03-18T08:23:42Z</time>
      </trkpt>
      <trkpt lat="48.59353" lon="1.96783">
        <ele>55.89</ele>
        <time>2021-03-18T08:23:56Z</time>
      </trkpt>
      <trkpt lat="48.59362" lon="1.96767">
        <ele>55.41</ele>
        <time>2021-03-18T08:24:06Z</time>
      </trkpt>
      <trkpt lat="48.59371" lon="1.96738">
        <ele>55.41</ele>
        <time>2021-03-18T08:24:21Z</time>
      </trkpt>
      <trkpt lat="48.59371" lon="1.96736">
        <ele>55.41</ele>
        <time>2021-03-18T08:24:22Z</time>
      </trkpt>
      <trkpt lat="48.59374" lon="1.96721">
        <ele>55.41</ele>
        <time>2021-03-18T08:24:29Z</time>
      </trkpt>
      <trkpt lat="48.59377" lon="1.96715">
        <ele>55.41</ele>
        <time>2021-03-18T08:24:32Z</time>
      </trkpt>
      <trkpt lat="48.5939" lon="1.96724">
        <ele>56.37</ele>
        <time>2021-03-18T08:24:45Z</time>
      </trkpt>
      <trkpt lat="48.59394" lon="1.9674">
        <ele>57.82</ele>
        <time>2021-03-18T08:24:55Z</time>
      </trkpt>
      <trkpt lat="48.594" lon="1.96739">
        <ele>59.74</ele>
        <time>2021-03-18T08:25:04Z</time>
      </trkpt>
      <trkpt lat="48.59409" lon="1.96757">
        <ele>62.14</ele>
        <time>2021-03-18T08:25:17Z</time>
      </trkpt>
      <trkpt lat="48.5942" lon="1.96783">
        <ele>64.07</ele>
        <time>2021-03-18T08:25:32Z</time>
      </trkpt>
      <trkpt lat="48.59427" lon="1.96807">
        <ele>66.47</ele>
        <time>2021-03-18T08:25:46Z</time>
      </trkpt>
      <trkpt lat="48.59433" lon="1.9684">
        <ele>69.83</ele>
        <time>2021-03-18T08:26:02Z</time>
      </trkpt>
      <trkpt lat="48.59418" lon="1.9685">
        <ele>72.72</ele>
        <time>2021-03-18T08:26:17Z</time>
      </trkpt>
      <trkpt lat="48.59409" lon="1.96874">
        <ele>75.12</ele>
        <time>2021-03-18T08:26:33Z</time>
      </trkpt>
      <trkpt lat="48.59406" lon="1.96881">
        <ele>75.6</ele>
        <time>2021-03-18T08:26:38Z</time>
      </trkpt>
      <trkpt lat="48.59403" lon="1.96899">
        <ele>75.6</ele>
        <time>2021-03-18T08:26:46Z</time>
      </trkpt>
      <trkpt lat="48.59408" lon="1.96932">
        <ele>76.08</ele>
        <time>2021-03-18T08:27:01Z</time>
      </trkpt>
      <trkpt lat="48.59412" lon="1.96948">
        <ele>76.08</ele>
        <time>2021-03-18T08:27:09Z</time>
      </trkpt>
      <trkpt lat="48.5942" lon="1.96964">
        <ele>75.6</ele>
        <time>2021-03-18T08:27:20Z</time>
      </trkpt>
      <trkpt lat="48.5942" lon="1.96974">
        <ele>76.08</ele>
        <time>2021-03-18T08:27:25Z</time>
      </trkpt>
      <trkpt lat="48.5942" lon="1.96977">
        <ele>76.56</ele>
        <time>2021-03-18T08:27:27Z</time>
      </trkpt>
      <trkpt lat="48.59422" lon="1.9699">
        <ele>77.04</ele>
        <time>2021-03-18T08:27:33Z</time>
      </trkpt>
      <trkpt lat="48.59418" lon="1.97016">
        <ele>78</ele>
        <time>2021-03-18T08:27:47Z</time>
      </trkpt>
      <trkpt lat="48.59422" lon="1.97044">
        <ele>78.48</ele>
        <time>2021-03-18T08:28:00Z</time>
      </trkpt>
      <trkpt lat="48.59428" lon="1.9706">
        <ele>78.48</ele>
        <time>2021-03-18T08:28:07Z</time>
      </trkpt>
      <trkpt lat="48.59433" lon="1.97083">
        <ele>78.97</ele>
        <time>2021-03-18T08:28:19Z</time>
      </trkpt>
      <trkpt lat="48.59435" lon="1.97118">
        <ele>79.93</ele>
        <time>2021-03-18T08:28:35Z</time>
      </trkpt>
      <trkpt lat="48.59435" lon="1.97128">
        <ele>80.89</ele>
        <time>2021-03-18T08:28:39Z</time>
      </trkpt>
      <trkpt lat="48.59438" lon="1.97158">
        <ele>80.89</ele>
        <time>2021-03-18T08:28:54Z</time>
      </trkpt>
      <trkpt lat="48.59443" lon="1.97184">
        <ele>81.37</ele>
        <time>2021-03-18T08:29:05Z</time>
      </trkpt>
      <trkpt lat="48.59433" lon="1.97206">
        <ele>81.37</ele>
        <time>2021-03-18T08:29:19Z</time>
      </trkpt>
      <trkpt lat="48.59429" lon="1.97218">
        <ele>81.37</ele>
        <time>2021-03-18T08:29:25Z</time>
      </trkpt>
      <trkpt lat="48.59428" lon="1.97226">
        <ele>80.89</ele>
        <time>2021-03-18T08:29:29Z</time>
      </trkpt>
      <trkpt lat="48.59426" lon="1.97239">
        <ele>79.93</ele>
        <time>2021-03-18T08:29:36Z</time>
      </trkpt>
      <trkpt lat="48.59431" lon="1.97246">
        <ele>79.45</ele>
        <time>2021-03-18T08:29:41Z</time>
      </trkpt>
      <trkpt lat="48.59439" lon="1.97261">
        <ele>78</ele>
        <time>2021-03-18T08:29:53Z</time>
      </trkpt>
      <trkpt lat="48.59439" lon="1.97262">
        <ele>78</ele>
        <time>2021-03-18T08:29:54Z</time>
      </trkpt>
      <trkpt lat="48.59443" lon="1.97268">
        <ele>77.52</ele>
        <time>2021-03-18T08:29:59Z</time>
      </trkpt>
      <trkpt lat="48.59447" lon="1.9728">
        <ele>76.08</ele>
        <time>2021-03-18T08:30:13Z</time>
      </trkpt>
      <trkpt lat="48.59449" lon="1.97288">
        <ele>73.2</ele>
        <time>2021-03-18T08:30:25Z</time>
      </trkpt>
      <trkpt lat="48.59451" lon="1.97294">
        <ele>72.24</ele>
        <time>2021-03-18T08:30:28Z</time>
      </trkpt>
      <trkpt lat="48.59455" lon="1.97316">
        <ele>69.35</ele>
        <time>2021-03-18T08:30:41Z</time>
      </trkpt>
      <trkpt lat="48.59455" lon="1.97328">
        <ele>66.47</ele>
        <time>2021-03-18T08:30:50Z</time>
      </trkpt>
      <trkpt lat="48.59457" lon="1.97332">
        <ele>66.47</ele>
        <time>2021-03-18T08:30:52Z</time>
      </trkpt>
      <trkpt lat="48.59466" lon="1.97357">
        <ele>65.99</ele>
        <time>2021-03-18T08:31:02Z</time>
      </trkpt>
      <trkpt lat="48.59468" lon="1.97366">
        <ele>65.51</ele>
        <time>2021-03-18T08:31:07Z</time>
      </trkpt>
      <trkpt lat="48.59471" lon="1.97388">
        <ele>64.07</ele>
        <time>2021-03-18T08:31:19Z</time>
      </trkpt>
      <trkpt lat="48.59472" lon="1.97393">
        <ele>64.07</ele>
        <time>2021-03-18T08:31:22Z</time>
      </trkpt>
      <trkpt lat="48.59473" lon="1.974">
        <ele>64.55</ele>
        <time>2021-03-18T08:31:26Z</time>
      </trkpt>
      <trkpt lat="48.59477" lon="1.97409">
        <ele>65.51</ele>
        <time>2021-03-18T08:31:39Z</time>
      </trkpt>
      <trkpt lat="48.59478" lon="1.97414">
        <ele>65.99</ele>
        <time>2021-03-18T08:31:56Z</time>
      </trkpt>
      <trkpt lat="48.59474" lon="1.97427">
        <ele>65.99</ele>
        <time>2021-03-18T08:32:05Z</time>
      </trkpt>
      <trkpt lat="48.59473" lon="1.97433">
        <ele>66.47</ele>
        <time>2021-03-18T08:32:08Z</time>
      </trkpt>
      <trkpt lat="48.59469" lon="1.97454">
        <ele>67.91</ele>
        <time>2021-03-18T08:32:21Z</time>
      </trkpt>
      <trkpt lat="48.59467" lon="1.97465">
        <ele>68.87</ele>
        <time>2021-03-18T08:32:27Z</time>
      </trkpt>
      <trkpt lat="48.59469" lon="1.97493">
        <ele>69.83</ele>
        <time>2021-03-18T08:32:40Z</time>
      </trkpt>
      <trkpt lat="48.59469" lon="1.9752">
        <ele>72.24</ele>
        <time>2021-03-18T08:32:55Z</time>
      </trkpt>
      <trkpt lat="48.5946" lon="1.97537">
        <ele>73.68</ele>
        <time>2021-03-18T08:33:07Z</time>
      </trkpt>
      <trkpt lat="48.59456" lon="1.97544">
        <ele>74.16</ele>
        <time>2021-03-18T08:33:11Z</time>
      </trkpt>
      <trkpt lat="48.5944" lon="1.97578">
        <ele>76.08</ele>
        <time>2021-03-18T08:33:27Z</time>
      </trkpt>
      <trkpt lat="48.59429" lon="1.97604">
        <ele>78</ele>
        <time>2021-03-18T08:33:40Z</time>
      </trkpt>
      <trkpt lat="48.59426" lon="1.9761">
        <ele>78.97</ele>
        <time>2021-03-18T08:33:44Z</time>
      </trkpt>
      <trkpt lat="48.59423" lon="1.9764">
        <ele>81.37</ele>
        <time>2021-03-18T08:33:59Z</time>
      </trkpt>
      <trkpt lat="48.59419" lon="1.9766">
        <ele>83.77</ele>
        <time>2021-03-18T08:34:15Z</time>
      </trkpt>
      <trkpt lat="48.59417" lon="1.97669">
        <ele>84.73</ele>
        <time>2021-03-18T08:34:20Z</time>
      </trkpt>
      <trkpt lat="48.59423" lon="1.97688">
        <ele>87.14</ele>
        <time>2021-03-18T08:34:31Z</time>
      </trkpt>
      <trkpt lat="48.59433" lon="1.97714">
        <ele>89.06</ele>
        <time>2021-03-18T08:34:44Z</time>
      </trkpt>
      <trkpt lat="48.59432" lon="1.97738">
        <ele>91.46</ele>
        <time>2021-03-18T08:34:58Z</time>
      </trkpt>
      <trkpt lat="48.5943" lon="1.97742">
        <ele>91.94</ele>
        <time>2021-03-18T08:35:11Z</time>
      </trkpt>
      <trkpt lat="48.59425" lon="1.97738">
        <ele>92.42</ele>
        <time>2021-03-18T08:35:23Z</time>
      </trkpt>
      <trkpt lat="48.59404" lon="1.97726">
        <ele>92.9</ele>
        <time>2021-03-18T08:35:40Z</time>
      </trkpt>
      <trkpt lat="48.59396" lon="1.97719">
        <ele>92.9</ele>
        <time>2021-03-18T08:35:44Z</time>
      </trkpt>
      <trkpt lat="48.59378" lon="1.97713">
        <ele>93.39</ele>
        <time>2021-03-18T08:35:56Z</time>
      </trkpt>
      <trkpt lat="48.59363" lon="1.97719">
        <ele>93.39</ele>
        <time>2021-03-18T08:36:10Z</time>
      </trkpt>
      <trkpt lat="48.5936" lon="1.97722">
        <ele>93.87</ele>
        <time>2021-03-18T08:36:13Z</time>
      </trkpt>
      <trkpt lat="48.59346" lon="1.97735">
        <ele>93.87</ele>
        <time>2021-03-18T08:36:24Z</time>
      </trkpt>
      <trkpt lat="48.59344" lon="1.97744">
        <ele>93.87</ele>
        <time>2021-03-18T08:36:31Z</time>
      </trkpt>
      <trkpt lat="48.59346" lon="1.97767">
        <ele>94.83</ele>
        <time>2021-03-18T08:36:43Z</time>
      </trkpt>
      <trkpt lat="48.59347" lon="1.97773">
        <ele>93.87</ele>
        <time>2021-03-18T08:36:46Z</time>
      </trkpt>
      <trkpt lat="48.59351" lon="1.97795">
        <ele>94.35</ele>
        <time>2021-03-18T08:37:00Z</time>
      </trkpt>
      <trkpt lat="48.5936" lon="1.9783">
        <ele>94.35</ele>
        <time>2021-03-18T08:37:17Z</time>
      </trkpt>
      <trkpt lat="48.59365" lon="1.97858">
        <ele>94.83</ele>
        <time>2021-03-18T08:37:30Z</time>
      </trkpt>
      <trkpt lat="48.59365" lon="1.97889">
        <ele>94.83</ele>
        <time>2021-03-18T08:37:44Z</time>
      </trkpt>
      <trkpt lat="48.59365" lon="1.97891">
        <ele>94.83</ele>
        <time>2021-03-18T08:37:45Z</time>
      </trkpt>
      <trkpt lat="48.59364" lon="1.979">
        <ele>94.83</ele>
        <time>2021-03-18T08:37:49Z</time>
      </trkpt>
      <trkpt lat="48.59361" lon="1.97918">
        <ele>94.83</ele>
        <time>2021-03-18T08:37:58Z</time>
      </trkpt>
      <trkpt lat="48.59352" lon="1.97941">
        <ele>94.35</ele>
        <time>2021-03-18T08:38:11Z</time>
      </trkpt>
      <trkpt lat="48.59352" lon="1.97961">
        <ele>94.83</ele>
        <time>2021-03-18T08:38:23Z</time>
      </trkpt>
      <trkpt lat="48.59352" lon="1.97973">
        <ele>94.35</ele>
        <time>2021-03-18T08:38:33Z</time>
      </trkpt>
      <trkpt lat="48.59354" lon="1.97988">
        <ele>94.35</ele>
        <time>2021-03-18T08:38:48Z</time>
      </trkpt>
      <trkpt lat="48.59348" lon="1.98001">
        <ele>94.35</ele>
        <time>2021-03-18T08:39:00Z</time>
      </trkpt>
      <trkpt lat="48.59347" lon="1.98002">
        <ele>94.83</ele>
        <time>2021-03-18T08:39:21Z</time>
      </trkpt>
      <trkpt lat="48.59346" lon="1.98004">
        <ele>95.31</ele>
        <time>2021-03-18T08:39:35Z</time>
      </trkpt>
      <trkpt lat="48.59345" lon="1.98004">
        <ele>95.79</ele>
        <time>2021-03-18T08:39:51Z</time>
      </trkpt>
      <trkpt lat="48.59345" lon="1.98005">
        <ele>96.27</ele>
        <time>2021-03-18T08:40:13Z</time>
      </trkpt>
      <trkpt lat="48.59344" lon="1.98005">
        <ele>96.75</ele>
        <time>2021-03-18T08:40:28Z</time>
      </trkpt>
      <trkpt lat="48.59347" lon="1.9801">
        <ele>96.75</ele>
        <time>2021-03-18T08:40:43Z</time>
      </trkpt>
      <trkpt lat="48.59351" lon="1.98015">
        <ele>98.19</ele>
        <time>2021-03-18T08:40:51Z</time>
      </trkpt>
      <trkpt lat="48.59353" lon="1.98018">
        <ele>98.19</ele>
        <time>2021-03-18T08:40:54Z</time>
      </trkpt>
      <trkpt lat="48.59356" lon="1.98028">
        <ele>98.19</ele>
        <time>2021-03-18T08:41:00Z</time>
      </trkpt>
      <trkpt lat="48.5937" lon="1.98052">
        <ele>98.67</ele>
        <time>2021-03-18T08:41:18Z</time>
      </trkpt>
      <trkpt lat="48.5939" lon="1.98073">
        <ele>98.67</ele>
        <time>2021-03-18T08:41:34Z</time>
      </trkpt>
      <trkpt lat="48.59413" lon="1.98088">
        <ele>98.67</ele>
        <time>2021-03-18T08:41:51Z</time>
      </trkpt>
      <trkpt lat="48.59423" lon="1.98086">
        <ele>99.63</ele>
        <time>2021-03-18T08:41:58Z</time>
      </trkpt>
      <trkpt lat="48.59429" lon="1.98079">
        <ele>100.6</ele>
        <time>2021-03-18T08:42:03Z</time>
      </trkpt>
      <trkpt lat="48.59433" lon="1.98075">
        <ele>100.11</ele>
        <time>2021-03-18T08:42:06Z</time>
      </trkpt>
      <trkpt lat="48.5945" lon="1.98053">
        <ele>100.6</ele>
        <time>2021-03-18T08:42:22Z</time>
      </trkpt>
      <trkpt lat="48.59466" lon="1.9803">
        <ele>101.08</ele>
        <time>2021-03-18T08:42:38Z</time>
      </trkpt>
      <trkpt lat="48.59483" lon="1.98006">
        <ele>102.04</ele>
        <time>2021-03-18T08:42:55Z</time>
      </trkpt>
      <trkpt lat="48.59498" lon="1.97991">
        <ele>102.04</ele>
        <time>2021-03-18T08:43:10Z</time>
      </trkpt>
      <trkpt lat="48.59506" lon="1.97991">
        <ele>102.04</ele>
        <time>2021-03-18T08:43:15Z</time>
      </trkpt>
      <trkpt lat="48.59524" lon="1.98008">
        <ele>101.56</ele>
        <time>2021-03-18T08:43:30Z</time>
      </trkpt>
      <trkpt lat="48.59545" lon="1.98023">
        <ele>101.08</ele>
        <time>2021-03-18T08:43:43Z</time>
      </trkpt>
      <trkpt lat="48.59566" lon="1.98034">
        <ele>100.6</ele>
        <time>2021-03-18T08:43:58Z</time>
      </trkpt>
      <trkpt lat="48.5957" lon="1.98035">
        <ele>100.11</ele>
        <time>2021-03-18T08:44:01Z</time>
      </trkpt>
      <trkpt lat="48.59591" lon="1.98049">
        <ele>99.15</ele>
        <time>2021-03-18T08:44:18Z</time>
      </trkpt>
      <trkpt lat="48.59597" lon="1.98053">
        <ele>98.67</ele>
        <time>2021-03-18T08:44:21Z</time>
      </trkpt>
      <trkpt lat="48.59604" lon="1.98067">
        <ele>98.19</ele>
        <time>2021-03-18T08:44:32Z</time>
      </trkpt>
      <trkpt lat="48.59606" lon="1.9807">
        <ele>97.71</ele>
        <time>2021-03-18T08:44:34Z</time>
      </trkpt>
      <trkpt lat="48.59612" lon="1.98078">
        <ele>97.71</ele>
        <time>2021-03-18T08:44:39Z</time>
      </trkpt>
      <trkpt lat="48.5963" lon="1.98099">
        <ele>97.23</ele>
        <time>2021-03-18T08:44:54Z</time>
      </trkpt>
      <trkpt lat="48.59651" lon="1.98122">
        <ele>97.71</ele>
        <time>2021-03-18T08:45:08Z</time>
      </trkpt>
      <trkpt lat="48.59668" lon="1.98148">
        <ele>97.23</ele>
        <time>2021-03-18T08:45:25Z</time>
      </trkpt>
      <trkpt lat="48.59689" lon="1.98176">
        <ele>96.27</ele>
        <time>2021-03-18T08:45:42Z</time>
      </trkpt>
      <trkpt lat="48.59701" lon="1.98183">
        <ele>95.31</ele>
        <time>2021-03-18T08:45:49Z</time>
      </trkpt>
      <trkpt lat="48.59712" lon="1.9819">
        <ele>94.35</ele>
        <time>2021-03-18T08:45:56Z</time>
      </trkpt>
      <trkpt lat="48.59722" lon="1.98197">
        <ele>94.83</ele>
        <time>2021-03-18T08:46:04Z</time>
      </trkpt>
      <trkpt lat="48.59746" lon="1.98204">
        <ele>91.46</ele>
        <time>2021-03-18T08:46:21Z</time>
      </trkpt>
      <trkpt lat="48.59768" lon="1.98214">
        <ele>90.02</ele>
        <time>2021-03-18T08:46:38Z</time>
      </trkpt>
      <trkpt lat="48.59789" lon="1.98234">
        <ele>88.58</ele>
        <time>2021-03-18T08:46:56Z</time>
      </trkpt>
      <trkpt lat="48.598" lon="1.98251">
        <ele>85.21</ele>
        <time>2021-03-18T08:47:11Z</time>
      </trkpt>
      <trkpt lat="48.59808" lon="1.98252">
        <ele>84.25</ele>
        <time>2021-03-18T08:47:20Z</time>
      </trkpt>
      <trkpt lat="48.59835" lon="1.98258">
        <ele>81.37</ele>
        <time>2021-03-18T08:47:38Z</time>
      </trkpt>
      <trkpt lat="48.59856" lon="1.98267">
        <ele>78.48</ele>
        <time>2021-03-18T08:47:55Z</time>
      </trkpt>
      <trkpt lat="48.59875" lon="1.98278">
        <ele>77.04</ele>
        <time>2021-03-18T08:48:13Z</time>
      </trkpt>
      <trkpt lat="48.59888" lon="1.98292">
        <ele>76.08</ele>
        <time>2021-03-18T08:48:25Z</time>
      </trkpt>
      <trkpt lat="48.59891" lon="1.98307">
        <ele>76.08</ele>
        <time>2021-03-18T08:48:37Z</time>
      </trkpt>
      <trkpt lat="48.5988" lon="1.98331">
        <ele>77.04</ele>
        <time>2021-03-18T08:48:50Z</time>
      </trkpt>
      <trkpt lat="48.59863" lon="1.98363">
        <ele>77.04</ele>
        <time>2021-03-18T08:49:07Z</time>
      </trkpt>
      <trkpt lat="48.59852" lon="1.9839">
        <ele>76.08</ele>
        <time>2021-03-18T08:49:21Z</time>
      </trkpt>
      <trkpt lat="48.59843" lon="1.98432">
        <ele>77.52</ele>
        <time>2021-03-18T08:49:34Z</time>
      </trkpt>
      <trkpt lat="48.59849" lon="1.98449">
        <ele>78.97</ele>
        <time>2021-03-18T08:49:48Z</time>
      </trkpt>
      <trkpt lat="48.59854" lon="1.9846">
        <ele>79.45</ele>
        <time>2021-03-18T08:49:56Z</time>
      </trkpt>
      <trkpt lat="48.59854" lon="1.9848">
        <ele>80.89</ele>
        <time>2021-03-18T08:50:08Z</time>
      </trkpt>
      <trkpt lat="48.59852" lon="1.98483">
        <ele>81.85</ele>
        <time>2021-03-18T08:50:10Z</time>
      </trkpt>
      <trkpt lat="48.59846" lon="1.98495">
        <ele>83.77</ele>
        <time>2021-03-18T08:50:21Z</time>
      </trkpt>
      <trkpt lat="48.59834" lon="1.98508">
        <ele>87.14</ele>
        <time>2021-03-18T08:50:35Z</time>
      </trkpt>
      <trkpt lat="48.59818" lon="1.98511">
        <ele>90.5</ele>
        <time>2021-03-18T08:50:50Z</time>
      </trkpt>
      <trkpt lat="48.59805" lon="1.98519">
        <ele>93.87</ele>
        <time>2021-03-18T08:51:01Z</time>
      </trkpt>
      <trkpt lat="48.59791" lon="1.98523">
        <ele>96.75</ele>
        <time>2021-03-18T08:51:14Z</time>
      </trkpt>
      <trkpt lat="48.59786" lon="1.98524">
        <ele>97.71</ele>
        <time>2021-03-18T08:51:19Z</time>
      </trkpt>
      <trkpt lat="48.59771" lon="1.98535">
        <ele>99.63</ele>
        <time>2021-03-18T08:51:36Z</time>
      </trkpt>
      <trkpt lat="48.59754" lon="1.98541">
        <ele>101.08</ele>
        <time>2021-03-18T08:51:53Z</time>
      </trkpt>
      <trkpt lat="48.59733" lon="1.98553">
        <ele>101.08</ele>
        <time>2021-03-18T08:52:10Z</time>
      </trkpt>
      <trkpt lat="48.5971" lon="1.98572">
        <ele>100.6</ele>
        <time>2021-03-18T08:52:26Z</time>
      </trkpt>
      <trkpt lat="48.59702" lon="1.9859">
        <ele>98.67</ele>
        <time>2021-03-18T08:52:42Z</time>
      </trkpt>
      <trkpt lat="48.597" lon="1.986">
        <ele>95.31</ele>
        <time>2021-03-18T08:52:56Z</time>
      </trkpt>
      <trkpt lat="48.59699" lon="1.98607">
        <ele>92.42</ele>
        <time>2021-03-18T08:53:08Z</time>
      </trkpt>
      <trkpt lat="48.59698" lon="1.98611">
        <ele>89.54</ele>
        <time>2021-03-18T08:53:18Z</time>
      </trkpt>
      <trkpt lat="48.59696" lon="1.98627">
        <ele>86.18</ele>
        <time>2021-03-18T08:53:29Z</time>
      </trkpt>
      <trkpt lat="48.59685" lon="1.98673">
        <ele>82.81</ele>
        <time>2021-03-18T08:53:47Z</time>
      </trkpt>
      <trkpt lat="48.59673" lon="1.98687">
        <ele>82.81</ele>
        <time>2021-03-18T08:54:01Z</time>
      </trkpt>
      <trkpt lat="48.59659" lon="1.9869">
        <ele>83.29</ele>
        <time>2021-03-18T08:54:16Z</time>
      </trkpt>
      <trkpt lat="48.59634" lon="1.98689">
        <ele>83.29</ele>
        <time>2021-03-18T08:54:32Z</time>
      </trkpt>
      <trkpt lat="48.59633" lon="1.9869">
        <ele>83.77</ele>
        <time>2021-03-18T08:54:33Z</time>
      </trkpt>
      <trkpt lat="48.59617" lon="1.98711">
        <ele>82.81</ele>
        <time>2021-03-18T08:54:47Z</time>
      </trkpt>
      <trkpt lat="48.59603" lon="1.98734">
        <ele>81.85</ele>
        <time>2021-03-18T08:55:00Z</time>
      </trkpt>
      <trkpt lat="48.59595" lon="1.98743">
        <ele>82.33</ele>
        <time>2021-03-18T08:55:07Z</time>
      </trkpt>
      <trkpt lat="48.59584" lon="1.98759">
        <ele>82.81</ele>
        <time>2021-03-18T08:55:18Z</time>
      </trkpt>
      <trkpt lat="48.59582" lon="1.98762">
        <ele>83.29</ele>
        <time>2021-03-18T08:55:20Z</time>
      </trkpt>
      <trkpt lat="48.59564" lon="1.98773">
        <ele>84.73</ele>
        <time>2021-03-18T08:55:36Z</time>
      </trkpt>
      <trkpt lat="48.59552" lon="1.98789">
        <ele>84.73</ele>
        <time>2021-03-18T08:55:51Z</time>
      </trkpt>
      <trkpt lat="48.59552" lon="1.98793">
        <ele>85.69</ele>
        <time>2021-03-18T08:56:12Z</time>
      </trkpt>
      <trkpt lat="48.59553" lon="1.98794">
        <ele>86.18</ele>
        <time>2021-03-18T08:56:38Z</time>
      </trkpt>
      <trkpt lat="48.59553" lon="1.98795">
        <ele>86.18</ele>
        <time>2021-03-18T08:56:53Z</time>
      </trkpt>
      <trkpt lat="48.59552" lon="1.98798">
        <ele>86.66</ele>
        <time>2021-03-18T08:57:05Z</time>
      </trkpt>
      <trkpt lat="48.59553" lon="1.988">
        <ele>87.14</ele>
        <time>2021-03-18T08:57:21Z</time>
      </trkpt>
      <trkpt lat="48.59553" lon="1.988">
        <ele>87.62</ele>
        <time>2021-03-18T08:57:40Z</time>
      </trkpt>
      <trkpt lat="48.59554" lon="1.98804">
        <ele>87.62</ele>
        <time>2021-03-18T08:57:49Z</time>
      </trkpt>
      <trkpt lat="48.59562" lon="1.98801">
        <ele>88.1</ele>
        <time>2021-03-18T08:58:04Z</time>
      </trkpt>
      <trkpt lat="48.59573" lon="1.988">
        <ele>88.1</ele>
        <time>2021-03-18T08:58:13Z</time>
      </trkpt>
      <trkpt lat="48.59591" lon="1.98793">
        <ele>88.1</ele>
        <time>2021-03-18T08:58:29Z</time>
      </trkpt>
      <trkpt lat="48.59609" lon="1.98789">
        <ele>87.14</ele>
        <time>2021-03-18T08:58:45Z</time>
      </trkpt>
      <trkpt lat="48.59632" lon="1.98789">
        <ele>85.21</ele>
        <time>2021-03-18T08:59:01Z</time>
      </trkpt>
      <trkpt lat="48.5965" lon="1.98789">
        <ele>84.73</ele>
        <time>2021-03-18T08:59:15Z</time>
      </trkpt>
      <trkpt lat="48.59672" lon="1.98788">
        <ele>83.77</ele>
        <time>2021-03-18T08:59:30Z</time>
      </trkpt>
      <trkpt lat="48.5968" lon="1.98788">
        <ele>83.77</ele>
        <time>2021-03-18T08:59:36Z</time>
      </trkpt>
      <trkpt lat="48.59703" lon="1.98788">
        <ele>82.33</ele>
        <time>2021-03-18T08:59:52Z</time>
      </trkpt>
      <trkpt lat="48.59721" lon="1.98788">
        <ele>81.37</ele>
        <time>2021-03-18T09:00:07Z</time>
      </trkpt>
      <trkpt lat="48.59739" lon="1.98789">
        <ele>80.89</ele>
        <time>2021-03-18T09:00:18Z</time>
      </trkpt>
      <trkpt lat="48.59751" lon="1.98789">
        <ele>81.37</ele>
        <time>2021-03-18T09:00:25Z</time>
      </trkpt>
      <trkpt lat="48.59774" lon="1.98789">
        <ele>80.89</ele>
        <time>2021-03-18T09:00:42Z</time>
      </trkpt>
      <trkpt lat="48.59797" lon="1.98791">
        <ele>79.45</ele>
        <time>2021-03-18T09:00:59Z</time>
      </trkpt>
      <trkpt lat="48.59824" lon="1.98789">
        <ele>78.97</ele>
        <time>2021-03-18T09:01:15Z</time>
      </trkpt>
      <trkpt lat="48.59845" lon="1.98788">
        <ele>78</ele>
        <time>2021-03-18T09:01:30Z</time>
      </trkpt>
      <trkpt lat="48.59868" lon="1.98781">
        <ele>77.04</ele>
        <time>2021-03-18T09:01:46Z</time>
      </trkpt>
      <trkpt lat="48.59892" lon="1.98773">
        <ele>76.08</ele>
        <time>2021-03-18T09:02:02Z</time>
      </trkpt>
      <trkpt lat="48.59913" lon="1.98768">
        <ele>76.56</ele>
        <time>2021-03-18T09:02:16Z</time>
      </trkpt>
      <trkpt lat="48.59923" lon="1.98765">
        <ele>76.08</ele>
        <time>2021-03-18T09:02:24Z</time>
      </trkpt>
      <trkpt lat="48.59949" lon="1.98759">
        <ele>75.6</ele>
        <time>2021-03-18T09:02:42Z</time>
      </trkpt>
      <trkpt lat="48.59956" lon="1.98756">
        <ele>75.6</ele>
        <time>2021-03-18T09:02:47Z</time>
      </trkpt>
      <trkpt lat="48.59979" lon="1.98749">
        <ele>75.6</ele>
        <time>2021-03-18T09:03:03Z</time>
      </trkpt>
      <trkpt lat="48.59983" lon="1.98746">
        <ele>75.12</ele>
        <time>2021-03-18T09:03:06Z</time>
      </trkpt>
      <trkpt lat="48.59992" lon="1.98744">
        <ele>75.12</ele>
        <time>2021-03-18T09:03:12Z</time>
      </trkpt>
      <trkpt lat="48.60016" lon="1.98742">
        <ele>75.12</ele>
        <time>2021-03-18T09:03:30Z</time>
      </trkpt>
      <trkpt lat="48.60038" lon="1.98738">
        <ele>75.6</ele>
        <time>2021-03-18T09:03:45Z</time>
      </trkpt>
      <trkpt lat="48.6005" lon="1.98732">
        <ele>76.56</ele>
        <time>2021-03-18T09:03:56Z</time>
      </trkpt>
      <trkpt lat="48.60076" lon="1.98717">
        <ele>78</ele>
        <time>2021-03-18T09:04:13Z</time>
      </trkpt>
      <trkpt lat="48.60101" lon="1.98694">
        <ele>79.45</ele>
        <time>2021-03-18T09:04:32Z</time>
      </trkpt>
      <trkpt lat="48.60111" lon="1.9869">
        <ele>79.45</ele>
        <time>2021-03-18T09:04:39Z</time>
      </trkpt>
      <trkpt lat="48.60132" lon="1.98673">
        <ele>79.93</ele>
        <time>2021-03-18T09:04:55Z</time>
      </trkpt>
      <trkpt lat="48.60151" lon="1.98653">
        <ele>79.93</ele>
        <time>2021-03-18T09:05:12Z</time>
      </trkpt>
      <trkpt lat="48.60174" lon="1.98628">
        <ele>78.97</ele>
        <time>2021-03-18T09:05:30Z</time>
      </trkpt>
      <trkpt lat="48.60196" lon="1.98609">
        <ele>78</ele>
        <time>2021-03-18T09:05:51Z</time>
      </trkpt>
      <trkpt lat="48.60215" lon="1.9859">
        <ele>78.97</ele>
        <time>2021-03-18T09:06:06Z</time>
      </trkpt>
      <trkpt lat="48.60239" lon="1.9857">
        <ele>77.52</ele>
        <time>2021-03-18T09:06:24Z</time>
      </trkpt>
      <trkpt lat="48.60261" lon="1.98547">
        <ele>77.52</ele>
        <time>2021-03-18T09:06:43Z</time>
      </trkpt>
      <trkpt lat="48.60279" lon="1.98524">
        <ele>78</ele>
        <time>2021-03-18T09:06:58Z</time>
      </trkpt>
      <trkpt lat="48.60286" lon="1.98514">
        <ele>78</ele>
        <time>2021-03-18T09:07:04Z</time>
      </trkpt>
      <trkpt lat="48.60291" lon="1.98503">
        <ele>78.48</ele>
        <time>2021-03-18T09:07:10Z</time>
      </trkpt>
      <trkpt lat="48.60299" lon="1.98476">
        <ele>78.97</ele>
        <time>2021-03-18T09:07:24Z</time>
      </trkpt>
      <trkpt lat="48.60316" lon="1.98454">
        <ele>79.45</ele>
        <time>2021-03-18T09:07:40Z</time>
      </trkpt>
      <trkpt lat="48.6032" lon="1.98448">
        <ele>79.45</ele>
        <time>2021-03-18T09:07:46Z</time>
      </trkpt>
      <trkpt lat="48.60339" lon="1.98431">
        <ele>78.97</ele>
        <time>2021-03-18T09:08:01Z</time>
      </trkpt>
      <trkpt lat="48.60345" lon="1.98426">
        <ele>78.48</ele>
        <time>2021-03-18T09:08:05Z</time>
      </trkpt>
      <trkpt lat="48.60368" lon="1.98401">
        <ele>76.56</ele>
        <time>2021-03-18T09:08:23Z</time>
      </trkpt>
      <trkpt lat="48.60392" lon="1.98393">
        <ele>75.12</ele>
        <time>2021-03-18T09:08:41Z</time>
      </trkpt>
      <trkpt lat="48.60418" lon="1.98379">
        <ele>74.64</ele>
        <time>2021-03-18T09:09:01Z</time>
      </trkpt>
      <trkpt lat="48.60441" lon="1.98369">
        <ele>74.64</ele>
        <time>2021-03-18T09:09:22Z</time>
      </trkpt>
      <trkpt lat="48.60457" lon="1.98368">
        <ele>74.64</ele>
        <time>2021-03-18T09:09:39Z</time>
      </trkpt>
      <trkpt lat="48.60488" lon="1.98363">
        <ele>75.12</ele>
        <time>2021-03-18T09:09:58Z</time>
      </trkpt>
      <trkpt lat="48.60527" lon="1.98349">
        <ele>76.08</ele>
        <time>2021-03-18T09:10:17Z</time>
      </trkpt>
      <trkpt lat="48.6052" lon="1.98337">
        <ele>76.56</ele>
        <time>2021-03-18T09:10:24Z</time>
      </trkpt>
      <trkpt lat="48.60518" lon="1.98335">
        <ele>76.56</ele>
        <time>2021-03-18T09:10:26Z</time>
      </trkpt>
      <trkpt lat="48.60502" lon="1.9832">
        <ele>76.56</ele>
        <time>2021-03-18T09:10:43Z</time>
      </trkpt>
      <trkpt lat="48.6048" lon="1.983">
        <ele>77.04</ele>
        <time>2021-03-18T09:10:58Z</time>
      </trkpt>
      <trkpt lat="48.60462" lon="1.98282">
        <ele>77.04</ele>
        <time>2021-03-18T09:11:14Z</time>
      </trkpt>
      <trkpt lat="48.60448" lon="1.98266">
        <ele>77.04</ele>
        <time>2021-03-18T09:11:27Z</time>
      </trkpt>
      <trkpt lat="48.60434" lon="1.98251">
        <ele>77.04</ele>
        <time>2021-03-18T09:11:36Z</time>
      </trkpt>
      <trkpt lat="48.60424" lon="1.98242">
        <ele>77.04</ele>
        <time>2021-03-18T09:11:44Z</time>
      </trkpt>
      <trkpt lat="48.60402" lon="1.98221">
        <ele>77.04</ele>
        <time>2021-03-18T09:12:01Z</time>
      </trkpt>
      <trkpt lat="48.60383" lon="1.982">
        <ele>78</ele>
        <time>2021-03-18T09:12:16Z</time>
      </trkpt>
      <trkpt lat="48.60381" lon="1.98198">
        <ele>77.52</ele>
        <time>2021-03-18T09:12:19Z</time>
      </trkpt>
      <trkpt lat="48.60364" lon="1.98177">
        <ele>78.97</ele>
        <time>2021-03-18T09:12:33Z</time>
      </trkpt>
      <trkpt lat="48.60346" lon="1.98157">
        <ele>79.45</ele>
        <time>2021-03-18T09:12:48Z</time>
      </trkpt>
      <trkpt lat="48.60342" lon="1.98142">
        <ele>79.45</ele>
        <time>2021-03-18T09:12:58Z</time>
      </trkpt>
      <trkpt lat="48.60351" lon="1.98124">
        <ele>79.93</ele>
        <time>2021-03-18T09:13:08Z</time>
      </trkpt>
      <trkpt lat="48.60365" lon="1.98085">
        <ele>81.37</ele>
        <time>2021-03-18T09:13:26Z</time>
      </trkpt>
      <trkpt lat="48.60367" lon="1.98081">
        <ele>81.85</ele>
        <time>2021-03-18T09:13:28Z</time>
      </trkpt>
      <trkpt lat="48.60382" lon="1.98061">
        <ele>82.81</ele>
        <time>2021-03-18T09:13:42Z</time>
      </trkpt>
      <trkpt lat="48.60388" lon="1.98049">
        <ele>83.29</ele>
        <time>2021-03-18T09:13:50Z</time>
      </trkpt>
      <trkpt lat="48.604" lon="1.9803">
        <ele>83.77</ele>
        <time>2021-03-18T09:14:01Z</time>
      </trkpt>
      <trkpt lat="48.60401" lon="1.98026">
        <ele>83.77</ele>
        <time>2021-03-18T09:14:03Z</time>
      </trkpt>
      <trkpt lat="48.60412" lon="1.97987">
        <ele>84.73</ele>
        <time>2021-03-18T09:14:22Z</time>
      </trkpt>
      <trkpt lat="48.60418" lon="1.97973">
        <ele>85.21</ele>
        <time>2021-03-18T09:14:28Z</time>
      </trkpt>
      <trkpt lat="48.60428" lon="1.9795">
        <ele>85.69</ele>
        <time>2021-03-18T09:14:40Z</time>
      </trkpt>
      <trkpt lat="48.60437" lon="1.97933">
        <ele>86.18</ele>
        <time>2021-03-18T09:14:52Z</time>
      </trkpt>
      <trkpt lat="48.6045" lon="1.97904">
        <ele>86.18</ele>
        <time>2021-03-18T09:15:08Z</time>
      </trkpt>
      <trkpt lat="48.60461" lon="1.97879">
        <ele>86.18</ele>
        <time>2021-03-18T09:15:22Z</time>
      </trkpt>
      <trkpt lat="48.60468" lon="1.97868">
        <ele>86.18</ele>
        <time>2021-03-18T09:15:29Z</time>
      </trkpt>
      <trkpt lat="48.6048" lon="1.97836">
        <ele>86.66</ele>
        <time>2021-03-18T09:15:45Z</time>
      </trkpt>
      <trkpt lat="48.60494" lon="1.97807">
        <ele>87.14</ele>
        <time>2021-03-18T09:16:01Z</time>
      </trkpt>
      <trkpt lat="48.60506" lon="1.97782">
        <ele>87.14</ele>
        <time>2021-03-18T09:16:16Z</time>
      </trkpt>
      <trkpt lat="48.6052" lon="1.9775">
        <ele>87.62</ele>
        <time>2021-03-18T09:16:33Z</time>
      </trkpt>
      <trkpt lat="48.60528" lon="1.97737">
        <ele>87.62</ele>
        <time>2021-03-18T09:16:49Z</time>
      </trkpt>
      <trkpt lat="48.60528" lon="1.97735">
        <ele>87.62</ele>
        <time>2021-03-18T09:17:09Z</time>
      </trkpt>
      <trkpt lat="48.60528" lon="1.97734">
        <ele>87.62</ele>
        <time>2021-03-18T09:17:31Z</time>
      </trkpt>
      <trkpt lat="48.60529" lon="1.97736">
        <ele>87.62</ele>
        <time>2021-03-18T09:17:47Z</time>
      </trkpt>
      <trkpt lat="48.6053" lon="1.97736">
        <ele>88.1</ele>
        <time>2021-03-18T09:18:09Z</time>
      </trkpt>
      <trkpt lat="48.6053" lon="1.97736">
        <ele>88.1</ele>
        <time>2021-03-18T09:18:21Z</time>
      </trkpt>
      <trkpt lat="48.60529" lon="1.97736">
        <ele>88.1</ele>
        <time>2021-03-18T09:18:50Z</time>
      </trkpt>
      <trkpt lat="48.60529" lon="1.97736">
        <ele>88.58</ele>
        <time>2021-03-18T09:19:03Z</time>
      </trkpt>
      <trkpt lat="48.6053" lon="1.97736">
        <ele>89.06</ele>
        <time>2021-03-18T09:19:19Z</time>
      </trkpt>
      <trkpt lat="48.60529" lon="1.97734">
        <ele>88.58</ele>
        <time>2021-03-18T09:19:32Z</time>
      </trkpt>
      <trkpt lat="48.60533" lon="1.97713">
        <ele>88.1</ele>
        <time>2021-03-18T09:19:46Z</time>
      </trkpt>
      <trkpt lat="48.60539" lon="1.97691">
        <ele>88.1</ele>
        <time>2021-03-18T09:20:00Z</time>
      </trkpt>
      <trkpt lat="48.60539" lon="1.97664">
        <ele>88.1</ele>
        <time>2021-03-18T09:20:14Z</time>
      </trkpt>
      <trkpt lat="48.60549" lon="1.97659">
        <ele>87.62</ele>
        <time>2021-03-18T09:20:26Z</time>
      </trkpt>
      <trkpt lat="48.60554" lon="1.97663">
        <ele>87.14</ele>
        <time>2021-03-18T09:20:31Z</time>
      </trkpt>
      <trkpt lat="48.6056" lon="1.9766">
        <ele>87.14</ele>
        <time>2021-03-18T09:20:35Z</time>
      </trkpt>
      <trkpt lat="48.60573" lon="1.97648">
        <ele>86.66</ele>
        <time>2021-03-18T09:20:48Z</time>
      </trkpt>
      <trkpt lat="48.60579" lon="1.97629">
        <ele>86.66</ele>
        <time>2021-03-18T09:20:56Z</time>
      </trkpt>
      <trkpt lat="48.60578" lon="1.97625">
        <ele>86.66</ele>
        <time>2021-03-18T09:20:58Z</time>
      </trkpt>
      <trkpt lat="48.60578" lon="1.97601">
        <ele>86.66</ele>
        <time>2021-03-18T09:21:13Z</time>
      </trkpt>
      <trkpt lat="48.60572" lon="1.97579">
        <ele>87.14</ele>
        <time>2021-03-18T09:21:27Z</time>
      </trkpt>
      <trkpt lat="48.6058" lon="1.97558">
        <ele>87.14</ele>
        <time>2021-03-18T09:21:41Z</time>
      </trkpt>
      <trkpt lat="48.60587" lon="1.97535">
        <ele>87.62</ele>
        <time>2021-03-18T09:21:52Z</time>
      </trkpt>
      <trkpt lat="48.60571" lon="1.97515">
        <ele>88.1</ele>
        <time>2021-03-18T09:22:09Z</time>
      </trkpt>
      <trkpt lat="48.60552" lon="1.97496">
        <ele>88.58</ele>
        <time>2021-03-18T09:22:23Z</time>
      </trkpt>
      <trkpt lat="48.60549" lon="1.97494">
        <ele>88.58</ele>
        <time>2021-03-18T09:22:25Z</time>
      </trkpt>
      <trkpt lat="48.60534" lon="1.97477">
        <ele>89.54</ele>
        <time>2021-03-18T09:22:37Z</time>
      </trkpt>
      <trkpt lat="48.60518" lon="1.9746">
        <ele>90.02</ele>
        <time>2021-03-18T09:22:51Z</time>
      </trkpt>
      <trkpt lat="48.60511" lon="1.97457">
        <ele>90.02</ele>
        <time>2021-03-18T09:22:57Z</time>
      </trkpt>
      <trkpt lat="48.6049" lon="1.97449">
        <ele>90.5</ele>
        <time>2021-03-18T09:23:13Z</time>
      </trkpt>
      <trkpt lat="48.60478" lon="1.9744">
        <ele>90.5</ele>
        <time>2021-03-18T09:23:26Z</time>
      </trkpt>
      <trkpt lat="48.60459" lon="1.97423">
        <ele>90.98</ele>
        <time>2021-03-18T09:23:40Z</time>
      </trkpt>
      <trkpt lat="48.60454" lon="1.97412">
        <ele>91.46</ele>
        <time>2021-03-18T09:23:46Z</time>
      </trkpt>
      <trkpt lat="48.60436" lon="1.97387">
        <ele>91.94</ele>
        <time>2021-03-18T09:24:02Z</time>
      </trkpt>
      <trkpt lat="48.60433" lon="1.97382">
        <ele>92.42</ele>
        <time>2021-03-18T09:24:07Z</time>
      </trkpt>
      <trkpt lat="48.60407" lon="1.97358">
        <ele>92.9</ele>
        <time>2021-03-18T09:24:22Z</time>
      </trkpt>
      <trkpt lat="48.60398" lon="1.97346">
        <ele>93.39</ele>
        <time>2021-03-18T09:24:31Z</time>
      </trkpt>
      <trkpt lat="48.60383" lon="1.9733">
        <ele>94.83</ele>
        <time>2021-03-18T09:24:49Z</time>
      </trkpt>
      <trkpt lat="48.60364" lon="1.97305">
        <ele>96.27</ele>
        <time>2021-03-18T09:25:07Z</time>
      </trkpt>
      <trkpt lat="48.60356" lon="1.97297">
        <ele>96.75</ele>
        <time>2021-03-18T09:25:12Z</time>
      </trkpt>
      <trkpt lat="48.60341" lon="1.9728">
        <ele>97.71</ele>
        <time>2021-03-18T09:25:30Z</time>
      </trkpt>
      <trkpt lat="48.60334" lon="1.97273">
        <ele>98.67</ele>
        <time>2021-03-18T09:25:37Z</time>
      </trkpt>
      <trkpt lat="48.60327" lon="1.97247">
        <ele>99.15</ele>
        <time>2021-03-18T09:25:52Z</time>
      </trkpt>
      <trkpt lat="48.60315" lon="1.97213">
        <ele>99.63</ele>
        <time>2021-03-18T09:26:07Z</time>
      </trkpt>
      <trkpt lat="48.60306" lon="1.97198">
        <ele>100.11</ele>
        <time>2021-03-18T09:26:17Z</time>
      </trkpt>
      <trkpt lat="48.60289" lon="1.97177">
        <ele>101.08</ele>
        <time>2021-03-18T09:26:33Z</time>
      </trkpt>
      <trkpt lat="48.60284" lon="1.97171">
        <ele>101.56</ele>
        <time>2021-03-18T09:26:39Z</time>
      </trkpt>
      <trkpt lat="48.60281" lon="1.97141">
        <ele>101.56</ele>
        <time>2021-03-18T09:26:54Z</time>
      </trkpt>
      <trkpt lat="48.60273" lon="1.97119">
        <ele>102.04</ele>
        <time>2021-03-18T09:27:08Z</time>
      </trkpt>
      <trkpt lat="48.60271" lon="1.97116">
        <ele>102.52</ele>
        <time>2021-03-18T09:27:10Z</time>
      </trkpt>
      <trkpt lat="48.6026" lon="1.9711">
        <ele>103</ele>
        <time>2021-03-18T09:27:25Z</time>
      </trkpt>
      <trkpt lat="48.60259" lon="1.97099">
        <ele>103.48</ele>
        <time>2021-03-18T09:27:43Z</time>
      </trkpt>
      <trkpt lat="48.60272" lon="1.97068">
        <ele>102.52</ele>
        <time>2021-03-18T09:28:00Z</time>
      </trkpt>
      <trkpt lat="48.60284" lon="1.97041">
        <ele>101.08</ele>
        <time>2021-03-18T09:28:18Z</time>
      </trkpt>
      <trkpt lat="48.60298" lon="1.97035">
        <ele>100.11</ele>
        <time>2021-03-18T09:28:33Z</time>
      </trkpt>
      <trkpt lat="48.6031" lon="1.97069">
        <ele>99.63</ele>
        <time>2021-03-18T09:28:50Z</time>
      </trkpt>
      <trkpt lat="48.60326" lon="1.97103">
        <ele>99.15</ele>
        <time>2021-03-18T09:29:11Z</time>
      </trkpt>
      <trkpt lat="48.60333" lon="1.97112">
        <ele>99.15</ele>
        <time>2021-03-18T09:29:19Z</time>
      </trkpt>
      <trkpt lat="48.60335" lon="1.97115">
        <ele>99.15</ele>
        <time>2021-03-18T09:29:21Z</time>
      </trkpt>
      <trkpt lat="48.60357" lon="1.9714">
        <ele>98.67</ele>
        <time>2021-03-18T09:29:36Z</time>
      </trkpt>
      <trkpt lat="48.60376" lon="1.9716">
        <ele>98.67</ele>
        <time>2021-03-18T09:29:53Z</time>
      </trkpt>
      <trkpt lat="48.60378" lon="1.97164">
        <ele>98.67</ele>
        <time>2021-03-18T09:29:55Z</time>
      </trkpt>
      <trkpt lat="48.60398" lon="1.97192">
        <ele>98.19</ele>
        <time>2021-03-18T09:30:15Z</time>
      </trkpt>
      <trkpt lat="48.60412" lon="1.97212">
        <ele>97.23</ele>
        <time>2021-03-18T09:30:30Z</time>
      </trkpt>
      <trkpt lat="48.60435" lon="1.97245">
        <ele>96.27</ele>
        <time>2021-03-18T09:30:49Z</time>
      </trkpt>
      <trkpt lat="48.60446" lon="1.97256">
        <ele>95.79</ele>
        <time>2021-03-18T09:31:06Z</time>
      </trkpt>
      <trkpt lat="48.6046" lon="1.97262">
        <ele>95.79</ele>
        <time>2021-03-18T09:31:22Z</time>
      </trkpt>
      <trkpt lat="48.60474" lon="1.97274">
        <ele>94.83</ele>
        <time>2021-03-18T09:31:36Z</time>
      </trkpt>
      <trkpt lat="48.60497" lon="1.97277">
        <ele>93.87</ele>
        <time>2021-03-18T09:31:51Z</time>
      </trkpt>
      <trkpt lat="48.60519" lon="1.97291">
        <ele>92.9</ele>
        <time>2021-03-18T09:32:07Z</time>
      </trkpt>
      <trkpt lat="48.60537" lon="1.97304">
        <ele>91.94</ele>
        <time>2021-03-18T09:32:24Z</time>
      </trkpt>
      <trkpt lat="48.60555" lon="1.97315">
        <ele>91.46</ele>
        <time>2021-03-18T09:32:39Z</time>
      </trkpt>
      <trkpt lat="48.6058" lon="1.97345">
        <ele>90.5</ele>
        <time>2021-03-18T09:32:56Z</time>
      </trkpt>
      <trkpt lat="48.60603" lon="1.97371">
        <ele>89.54</ele>
        <time>2021-03-18T09:33:16Z</time>
      </trkpt>
      <trkpt lat="48.6062" lon="1.97401">
        <ele>89.06</ele>
        <time>2021-03-18T09:33:34Z</time>
      </trkpt>
      <trkpt lat="48.60635" lon="1.97425">
        <ele>88.1</ele>
        <time>2021-03-18T09:33:49Z</time>
      </trkpt>
      <trkpt lat="48.60652" lon="1.97446">
        <ele>88.1</ele>
        <time>2021-03-18T09:34:05Z</time>
      </trkpt>
      <trkpt lat="48.60661" lon="1.97457">
        <ele>88.1</ele>
        <time>2021-03-18T09:34:13Z</time>
      </trkpt>
      <trkpt lat="48.60683" lon="1.97472">
        <ele>87.14</ele>
        <time>2021-03-18T09:34:30Z</time>
      </trkpt>
      <trkpt lat="48.60703" lon="1.97477">
        <ele>86.66</ele>
        <time>2021-03-18T09:34:46Z</time>
      </trkpt>
      <trkpt lat="48.60731" lon="1.97466">
        <ele>86.18</ele>
        <time>2021-03-18T09:35:04Z</time>
      </trkpt>
      <trkpt lat="48.6075" lon="1.97459">
        <ele>85.69</ele>
        <time>2021-03-18T09:35:20Z</time>
      </trkpt>
      <trkpt lat="48.60762" lon="1.97447">
        <ele>85.69</ele>
        <time>2021-03-18T09:35:37Z</time>
      </trkpt>
      <trkpt lat="48.60761" lon="1.97442">
        <ele>85.69</ele>
        <time>2021-03-18T09:35:57Z</time>
      </trkpt>
      <trkpt lat="48.6076" lon="1.97449">
        <ele>86.18</ele>
        <time>2021-03-18T09:36:17Z</time>
      </trkpt>
      <trkpt lat="48.6076" lon="1.9745">
        <ele>86.18</ele>
        <time>2021-03-18T09:36:40Z</time>
      </trkpt>
      <trkpt lat="48.6076" lon="1.97449">
        <ele>86.18</ele>
        <time>2021-03-18T09:37:12Z</time>
      </trkpt>
      <trkpt lat="48.60759" lon="1.97448">
        <ele>86.66</ele>
        <time>2021-03-18T09:37:37Z</time>
      </trkpt>
      <trkpt lat="48.60761" lon="1.97443">
        <ele>86.66</ele>
        <time>2021-03-18T09:37:52Z</time>
      </trkpt>
      <trkpt lat="48.60751" lon="1.97433">
        <ele>86.66</ele>
        <time>2021-03-18T09:38:06Z</time>
      </trkpt>
      <trkpt lat="48.60743" lon="1.97425">
        <ele>87.14</ele>
        <time>2021-03-18T09:38:14Z</time>
      </trkpt>
      <trkpt lat="48.60727" lon="1.97404">
        <ele>87.62</ele>
        <time>2021-03-18T09:38:30Z</time>
      </trkpt>
      <trkpt lat="48.60724" lon="1.97375">
        <ele>88.1</ele>
        <time>2021-03-18T09:38:46Z</time>
      </trkpt>
      <trkpt lat="48.60717" lon="1.97346">
        <ele>88.1</ele>
        <time>2021-03-18T09:39:02Z</time>
      </trkpt>
      <trkpt lat="48.60709" lon="1.97314">
        <ele>88.58</ele>
        <time>2021-03-18T09:39:17Z</time>
      </trkpt>
      <trkpt lat="48.60707" lon="1.97304">
        <ele>88.58</ele>
        <time>2021-03-18T09:39:22Z</time>
      </trkpt>
      <trkpt lat="48.60699" lon="1.97278">
        <ele>89.06</ele>
        <time>2021-03-18T09:39:36Z</time>
      </trkpt>
      <trkpt lat="48.60698" lon="1.97251">
        <ele>89.06</ele>
        <time>2021-03-18T09:39:52Z</time>
      </trkpt>
      <trkpt lat="48.60706" lon="1.97223">
        <ele>89.54</ele>
        <time>2021-03-18T09:40:08Z</time>
      </trkpt>
      <trkpt lat="48.60709" lon="1.9719">
        <ele>89.54</ele>
        <time>2021-03-18T09:40:22Z</time>
      </trkpt>
      <trkpt lat="48.60709" lon="1.97162">
        <ele>90.5</ele>
        <time>2021-03-18T09:40:38Z</time>
      </trkpt>
      <trkpt lat="48.60701" lon="1.9712">
        <ele>91.46</ele>
        <time>2021-03-18T09:40:53Z</time>
      </trkpt>
      <trkpt lat="48.60684" lon="1.97089">
        <ele>92.42</ele>
        <time>2021-03-18T09:41:08Z</time>
      </trkpt>
      <trkpt lat="48.60671" lon="1.97073">
        <ele>93.87</ele>
        <time>2021-03-18T09:41:21Z</time>
      </trkpt>
      <trkpt lat="48.60655" lon="1.97054">
        <ele>95.31</ele>
        <time>2021-03-18T09:41:35Z</time>
      </trkpt>
      <trkpt lat="48.60644" lon="1.97043">
        <ele>96.27</ele>
        <time>2021-03-18T09:41:45Z</time>
      </trkpt>
      <trkpt lat="48.6063" lon="1.97026">
        <ele>97.23</ele>
        <time>2021-03-18T09:41:58Z</time>
      </trkpt>
      <trkpt lat="48.60617" lon="1.97012">
        <ele>97.71</ele>
        <time>2021-03-18T09:42:09Z</time>
      </trkpt>
      <trkpt lat="48.60603" lon="1.96993">
        <ele>98.67</ele>
        <time>2021-03-18T09:42:21Z</time>
      </trkpt>
      <trkpt lat="48.6059" lon="1.9698">
        <ele>100.6</ele>
        <time>2021-03-18T09:42:34Z</time>
      </trkpt>
      <trkpt lat="48.60571" lon="1.96965">
        <ele>103.48</ele>
        <time>2021-03-18T09:42:51Z</time>
      </trkpt>
      <trkpt lat="48.60561" lon="1.96948">
        <ele>104.92</ele>
        <time>2021-03-18T09:43:03Z</time>
      </trkpt>
      <trkpt lat="48.60553" lon="1.96939">
        <ele>106.84</ele>
        <time>2021-03-18T09:43:16Z</time>
      </trkpt>
      <trkpt lat="48.60549" lon="1.96938">
        <ele>107.81</ele>
        <time>2021-03-18T09:43:31Z</time>
      </trkpt>
      <trkpt lat="48.60548" lon="1.96937">
        <ele>107.81</ele>
        <time>2021-03-18T09:43:50Z</time>
      </trkpt>
      <trkpt lat="48.60548" lon="1.96935">
        <ele>108.77</ele>
        <time>2021-03-18T09:44:07Z</time>
      </trkpt>
      <trkpt lat="48.60532" lon="1.96921">
        <ele>111.65</ele>
        <time>2021-03-18T09:44:23Z</time>
      </trkpt>
      <trkpt lat="48.60517" lon="1.96907">
        <ele>114.05</ele>
        <time>2021-03-18T09:44:37Z</time>
      </trkpt>
      <trkpt lat="48.60506" lon="1.96894">
        <ele>116.46</ele>
        <time>2021-03-18T09:44:50Z</time>
      </trkpt>
      <trkpt lat="48.60492" lon="1.96881">
        <ele>117.9</ele>
        <time>2021-03-18T09:45:06Z</time>
      </trkpt>
      <trkpt lat="48.6049" lon="1.96879">
        <ele>117.9</ele>
        <time>2021-03-18T09:45:08Z</time>
      </trkpt>
      <trkpt lat="48.60465" lon="1.96858">
        <ele>120.78</ele>
        <time>2021-03-18T09:45:23Z</time>
      </trkpt>
      <trkpt lat="48.60449" lon="1.96841">
        <ele>123.19</ele>
        <time>2021-03-18T09:45:41Z</time>
      </trkpt>
      <trkpt lat="48.60435" lon="1.96824">
        <ele>123.67</ele>
        <time>2021-03-18T09:46:00Z</time>
      </trkpt>
      <trkpt lat="48.60417" lon="1.96807">
        <ele>125.11</ele>
        <time>2021-03-18T09:46:17Z</time>
      </trkpt>
      <trkpt lat="48.60413" lon="1.968">
        <ele>125.11</ele>
        <time>2021-03-18T09:46:37Z</time>
      </trkpt>
      <trkpt lat="48.60408" lon="1.96799">
        <ele>125.11</ele>
        <time>2021-03-18T09:47:02Z</time>
      </trkpt>
      <trkpt lat="48.60407" lon="1.96798">
        <ele>125.59</ele>
        <time>2021-03-18T09:47:23Z</time>
      </trkpt>
      <trkpt lat="48.60406" lon="1.96798">
        <ele>125.11</ele>
        <time>2021-03-18T09:47:40Z</time>
      </trkpt>
      <trkpt lat="48.60404" lon="1.96796">
        <ele>125.59</ele>
        <time>2021-03-18T09:47:58Z</time>
      </trkpt>
      <trkpt lat="48.60401" lon="1.96792">
        <ele>125.59</ele>
        <time>2021-03-18T09:48:13Z</time>
      </trkpt>
      <trkpt lat="48.60387" lon="1.96776">
        <ele>125.59</ele>
        <time>2021-03-18T09:48:27Z</time>
      </trkpt>
      <trkpt lat="48.60373" lon="1.96749">
        <ele>125.59</ele>
        <time>2021-03-18T09:48:42Z</time>
      </trkpt>
      <trkpt lat="48.60356" lon="1.96735">
        <ele>124.63</ele>
        <time>2021-03-18T09:48:56Z</time>
      </trkpt>
      <trkpt lat="48.60341" lon="1.96727">
        <ele>124.15</ele>
        <time>2021-03-18T09:49:10Z</time>
      </trkpt>
      <trkpt lat="48.60328" lon="1.96713">
        <ele>123.19</ele>
        <time>2021-03-18T09:49:25Z</time>
      </trkpt>
      <trkpt lat="48.60323" lon="1.96699">
        <ele>123.19</ele>
        <time>2021-03-18T09:49:35Z</time>
      </trkpt>
      <trkpt lat="48.60315" lon="1.96676">
        <ele>121.74</ele>
        <time>2021-03-18T09:49:50Z</time>
      </trkpt>
      <trkpt lat="48.60306" lon="1.96658">
        <ele>120.78</ele>
        <time>2021-03-18T09:50:02Z</time>
      </trkpt>
      <trkpt lat="48.60301" lon="1.96635">
        <ele>120.78</ele>
        <time>2021-03-18T09:50:16Z</time>
      </trkpt>
      <trkpt lat="48.60299" lon="1.96612">
        <ele>121.74</ele>
        <time>2021-03-18T09:50:30Z</time>
      </trkpt>
      <trkpt lat="48.60299" lon="1.96607">
        <ele>121.74</ele>
        <time>2021-03-18T09:50:34Z</time>
      </trkpt>
      <trkpt lat="48.60301" lon="1.96574">
        <ele>122.71</ele>
        <time>2021-03-18T09:50:51Z</time>
      </trkpt>
      <trkpt lat="48.60301" lon="1.96548">
        <ele>122.71</ele>
        <time>2021-03-18T09:51:05Z</time>
      </trkpt>
      <trkpt lat="48.603" lon="1.96525">
        <ele>123.19</ele>
        <time>2021-03-18T09:51:21Z</time>
      </trkpt>
      <trkpt lat="48.60298" lon="1.96517">
        <ele>122.71</ele>
        <time>2021-03-18T09:51:25Z</time>
      </trkpt>
      <trkpt lat="48.60286" lon="1.96485">
        <ele>120.78</ele>
        <time>2021-03-18T09:51:40Z</time>
      </trkpt>
      <trkpt lat="48.60283" lon="1.9646">
        <ele>120.3</ele>
        <time>2021-03-18T09:51:55Z</time>
      </trkpt>
      <trkpt lat="48.60279" lon="1.96436">
        <ele>120.78</ele>
        <time>2021-03-18T09:52:14Z</time>
      </trkpt>
      <trkpt lat="48.60283" lon="1.96432">
        <ele>120.78</ele>
        <time>2021-03-18T09:52:28Z</time>
      </trkpt>
      <trkpt lat="48.60282" lon="1.9642">
        <ele>120.3</ele>
        <time>2021-03-18T09:52:48Z</time>
      </trkpt>
      <trkpt lat="48.60286" lon="1.96416">
        <ele>120.78</ele>
        <time>2021-03-18T09:53:14Z</time>
      </trkpt>
      <trkpt lat="48.60286" lon="1.96414">
        <ele>120.3</ele>
        <time>2021-03-18T09:53:44Z</time>
      </trkpt>
      <trkpt lat="48.60288" lon="1.96412">
        <ele>120.78</ele>
        <time>2021-03-18T09:54:02Z</time>
      </trkpt>
      <trkpt lat="48.60289" lon="1.96411">
        <ele>120.78</ele>
        <time>2021-03-18T09:54:27Z</time>
      </trkpt>
      <trkpt lat="48.60289" lon="1.96409">
        <ele>120.78</ele>
        <time>2021-03-18T09:54:49Z</time>
      </trkpt>
      <trkpt lat="48.60299" lon="1.96388">
        <ele>122.71</ele>
        <time>2021-03-18T09:55:05Z</time>
      </trkpt>
      <trkpt lat="48.60299" lon="1.96381">
        <ele>121.74</ele>
        <time>2021-03-18T09:55:19Z</time>
      </trkpt>
      <trkpt lat="48.60298" lon="1.96379">
        <ele>121.74</ele>
        <time>2021-03-18T09:55:23Z</time>
      </trkpt>
      <trkpt lat="48.60285" lon="1.96364">
        <ele>121.74</ele>
        <time>2021-03-18T09:55:38Z</time>
      </trkpt>
      <trkpt lat="48.60279" lon="1.96358">
        <ele>122.22</ele>
        <time>2021-03-18T09:55:43Z</time>
      </trkpt>
      <trkpt lat="48.60268" lon="1.96343">
        <ele>123.19</ele>
        <time>2021-03-18T09:55:57Z</time>
      </trkpt>
      <trkpt lat="48.60243" lon="1.96319">
        <ele>123.19</ele>
        <time>2021-03-18T09:56:14Z</time>
      </trkpt>
      <trkpt lat="48.60217" lon="1.96295">
        <ele>121.26</ele>
        <time>2021-03-18T09:56:31Z</time>
      </trkpt>
      <trkpt lat="48.60197" lon="1.96277">
        <ele>119.82</ele>
        <time>2021-03-18T09:56:46Z</time>
      </trkpt>
      <trkpt lat="48.6018" lon="1.96255">
        <ele>116.94</ele>
        <time>2021-03-18T09:57:05Z</time>
      </trkpt>
      <trkpt lat="48.60172" lon="1.96247">
        <ele>114.53</ele>
        <time>2021-03-18T09:57:15Z</time>
      </trkpt>
      <trkpt lat="48.60154" lon="1.96224">
        <ele>111.65</ele>
        <time>2021-03-18T09:57:30Z</time>
      </trkpt>
      <trkpt lat="48.60149" lon="1.96208">
        <ele>110.21</ele>
        <time>2021-03-18T09:57:45Z</time>
      </trkpt>
      <trkpt lat="48.60149" lon="1.96199">
        <ele>108.77</ele>
        <time>2021-03-18T09:58:01Z</time>
      </trkpt>
      <trkpt lat="48.60151" lon="1.96192">
        <ele>107.32</ele>
        <time>2021-03-18T09:58:20Z</time>
      </trkpt>
      <trkpt lat="48.60157" lon="1.96177">
        <ele>106.84</ele>
        <time>2021-03-18T09:58:36Z</time>
      </trkpt>
      <trkpt lat="48.60156" lon="1.96139">
        <ele>105.4</ele>
        <time>2021-03-18T09:58:52Z</time>
      </trkpt>
      <trkpt lat="48.60157" lon="1.96136">
        <ele>105.4</ele>
        <time>2021-03-18T09:58:53Z</time>
      </trkpt>
      <trkpt lat="48.60164" lon="1.96079">
        <ele>106.36</ele>
        <time>2021-03-18T09:59:09Z</time>
      </trkpt>
      <trkpt lat="48.60166" lon="1.96065">
        <ele>106.84</ele>
        <time>2021-03-18T09:59:13Z</time>
      </trkpt>
      <trkpt lat="48.60175" lon="1.96018">
        <ele>107.81</ele>
        <time>2021-03-18T09:59:29Z</time>
      </trkpt>
      <trkpt lat="48.60182" lon="1.96">
        <ele>108.29</ele>
        <time>2021-03-18T09:59:46Z</time>
      </trkpt>
      <trkpt lat="48.60185" lon="1.95995">
        <ele>108.29</ele>
        <time>2021-03-18T09:59:56Z</time>
      </trkpt>
      <trkpt lat="48.60194" lon="1.95974">
        <ele>105.88</ele>
        <time>2021-03-18T10:00:12Z</time>
      </trkpt>
      <trkpt lat="48.60203" lon="1.95948">
        <ele>103.48</ele>
        <time>2021-03-18T10:00:28Z</time>
      </trkpt>
      <trkpt lat="48.60215" lon="1.95921">
        <ele>101.08</ele>
        <time>2021-03-18T10:00:44Z</time>
      </trkpt>
      <trkpt lat="48.6022" lon="1.95905">
        <ele>98.67</ele>
        <time>2021-03-18T10:01:00Z</time>
      </trkpt>
      <trkpt lat="48.60224" lon="1.95886">
        <ele>98.19</ele>
        <time>2021-03-18T10:01:23Z</time>
      </trkpt>
      <trkpt lat="48.60227" lon="1.95881">
        <ele>98.19</ele>
        <time>2021-03-18T10:01:50Z</time>
      </trkpt>
      <trkpt lat="48.60231" lon="1.95876">
        <ele>98.67</ele>
        <time>2021-03-18T10:02:13Z</time>
      </trkpt>
      <trkpt lat="48.60232" lon="1.95873">
        <ele>97.71</ele>
        <time>2021-03-18T10:02:32Z</time>
      </trkpt>
      <trkpt lat="48.60242" lon="1.95857">
        <ele>97.23</ele>
        <time>2021-03-18T10:02:49Z</time>
      </trkpt>
      <trkpt lat="48.60254" lon="1.95834">
        <ele>96.75</ele>
        <time>2021-03-18T10:03:05Z</time>
      </trkpt>
      <trkpt lat="48.60263" lon="1.95818">
        <ele>96.27</ele>
        <time>2021-03-18T10:03:22Z</time>
      </trkpt>
      <trkpt lat="48.60271" lon="1.95811">
        <ele>95.79</ele>
        <time>2021-03-18T10:03:38Z</time>
      </trkpt>
      <trkpt lat="48.6028" lon="1.95811">
        <ele>95.79</ele>
        <time>2021-03-18T10:03:53Z</time>
      </trkpt>
      <trkpt lat="48.60289" lon="1.95814">
        <ele>95.31</ele>
        <time>2021-03-18T10:04:10Z</time>
      </trkpt>
      <trkpt lat="48.60297" lon="1.9582">
        <ele>95.31</ele>
        <time>2021-03-18T10:04:28Z</time>
      </trkpt>
      <trkpt lat="48.60391" lon="1.95871">
        <ele>94.83</ele>
        <time>2021-03-18T10:04:46Z</time>
      </trkpt>
      <trkpt lat="48.60403" lon="1.95868">
        <ele>94.83</ele>
        <time>2021-03-18T10:05:00Z</time>
      </trkpt>
      <trkpt lat="48.60412" lon="1.95872">
        <ele>94.83</ele>
        <time>2021-03-18T10:05:14Z</time>
      </trkpt>
      <trkpt lat="48.60436" lon="1.9588">
        <ele>94.83</ele>
        <time>2021-03-18T10:05:33Z</time>
      </trkpt>
      <trkpt lat="48.60465" lon="1.95883">
        <ele>94.83</ele>
        <time>2021-03-18T10:05:50Z</time>
      </trkpt>
      <trkpt lat="48.60491" lon="1.95894">
        <ele>94.83</ele>
        <time>2021-03-18T10:06:08Z</time>
      </trkpt>
      <trkpt lat="48.60508" lon="1.95906">
        <ele>94.83</ele>
        <time>2021-03-18T10:06:26Z</time>
      </trkpt>
      <trkpt lat="48.60523" lon="1.95928">
        <ele>94.83</ele>
        <time>2021-03-18T10:06:41Z</time>
      </trkpt>
      <trkpt lat="48.60542" lon="1.95946">
        <ele>94.83</ele>
        <time>2021-03-18T10:06:58Z</time>
      </trkpt>
      <trkpt lat="48.60559" lon="1.95959">
        <ele>94.35</ele>
        <time>2021-03-18T10:07:12Z</time>
      </trkpt>
      <trkpt lat="48.60575" lon="1.95977">
        <ele>94.35</ele>
        <time>2021-03-18T10:07:32Z</time>
      </trkpt>
      <trkpt lat="48.60587" lon="1.95997">
        <ele>94.35</ele>
        <time>2021-03-18T10:07:50Z</time>
      </trkpt>
      <trkpt lat="48.60618" lon="1.96022">
        <ele>96.27</ele>
        <time>2021-03-18T10:08:08Z</time>
      </trkpt>
      <trkpt lat="48.60627" lon="1.96022">
        <ele>93.87</ele>
        <time>2021-03-18T10:08:25Z</time>
      </trkpt>
      <trkpt lat="48.60636" lon="1.96017">
        <ele>92.9</ele>
        <time>2021-03-18T10:08:42Z</time>
      </trkpt>
      <trkpt lat="48.60665" lon="1.9598">
        <ele>91.94</ele>
        <time>2021-03-18T10:09:02Z</time>
      </trkpt>
      <trkpt lat="48.60668" lon="1.95964">
        <ele>92.42</ele>
        <time>2021-03-18T10:09:19Z</time>
      </trkpt>
      <trkpt lat="48.60668" lon="1.95949">
        <ele>91.94</ele>
        <time>2021-03-18T10:09:36Z</time>
      </trkpt>
      <trkpt lat="48.60667" lon="1.95921">
        <ele>91.94</ele>
        <time>2021-03-18T10:09:53Z</time>
      </trkpt>
      <trkpt lat="48.60669" lon="1.95918">
        <ele>91.94</ele>
        <time>2021-03-18T10:10:18Z</time>
      </trkpt>
      <trkpt lat="48.60669" lon="1.95917">
        <ele>91.94</ele>
        <time>2021-03-18T10:10:48Z</time>
      </trkpt>
      <trkpt lat="48.60673" lon="1.95913">
        <ele>91.46</ele>
        <time>2021-03-18T10:11:10Z</time>
      </trkpt>
      <trkpt lat="48.6069" lon="1.95878">
        <ele>91.94</ele>
        <time>2021-03-18T10:11:28Z</time>
      </trkpt>
      <trkpt lat="48.60699" lon="1.95841">
        <ele>92.9</ele>
        <time>2021-03-18T10:11:47Z</time>
      </trkpt>
      <trkpt lat="48.60701" lon="1.95799">
        <ele>91.94</ele>
        <time>2021-03-18T10:12:02Z</time>
      </trkpt>
      <trkpt lat="48.60696" lon="1.95759">
        <ele>92.42</ele>
        <time>2021-03-18T10:12:20Z</time>
      </trkpt>
      <trkpt lat="48.6069" lon="1.95715">
        <ele>92.42</ele>
        <time>2021-03-18T10:12:39Z</time>
      </trkpt>
      <trkpt lat="48.60675" lon="1.95662">
        <ele>92.42</ele>
        <time>2021-03-18T10:12:55Z</time>
      </trkpt>
      <trkpt lat="48.60648" lon="1.95645">
        <ele>93.39</ele>
        <time>2021-03-18T10:13:13Z</time>
      </trkpt>
      <trkpt lat="48.60634" lon="1.95628">
        <ele>93.39</ele>
        <time>2021-03-18T10:13:30Z</time>
      </trkpt>
      <trkpt lat="48.6062" lon="1.95605">
        <ele>93.87</ele>
        <time>2021-03-18T10:13:47Z</time>
      </trkpt>
      <trkpt lat="48.60606" lon="1.95557">
        <ele>93.87</ele>
        <time>2021-03-18T10:14:05Z</time>
      </trkpt>
      <trkpt lat="48.60609" lon="1.95514">
        <ele>93.87</ele>
        <time>2021-03-18T10:14:22Z</time>
      </trkpt>
      <trkpt lat="48.60605" lon="1.95473">
        <ele>94.35</ele>
        <time>2021-03-18T10:14:40Z</time>
      </trkpt>
      <trkpt lat="48.60607" lon="1.95454">
        <ele>95.31</ele>
        <time>2021-03-18T10:14:58Z</time>
      </trkpt>
      <trkpt lat="48.60608" lon="1.95435">
        <ele>94.83</ele>
        <time>2021-03-18T10:15:15Z</time>
      </trkpt>
      <trkpt lat="48.60601" lon="1.95399">
        <ele>94.83</ele>
        <time>2021-03-18T10:15:34Z</time>
      </trkpt>
      <trkpt lat="48.60589" lon="1.95337">
        <ele>94.83</ele>
        <time>2021-03-18T10:15:51Z</time>
      </trkpt>
      <trkpt lat="48.60583" lon="1.95305">
        <ele>94.83</ele>
        <time>2021-03-18T10:16:08Z</time>
      </trkpt>
      <trkpt lat="48.60585" lon="1.95261">
        <ele>95.79</ele>
        <time>2021-03-18T10:16:27Z</time>
      </trkpt>
      <trkpt lat="48.60586" lon="1.95242">
        <ele>95.79</ele>
        <time>2021-03-18T10:16:43Z</time>
      </trkpt>
      <trkpt lat="48.60585" lon="1.95231">
        <ele>95.79</ele>
        <time>2021-03-18T10:17:04Z</time>
      </trkpt>
      <trkpt lat="48.60578" lon="1.95216">
        <ele>95.79</ele>
        <time>2021-03-18T10:17:27Z</time>
      </trkpt>
      <trkpt lat="48.60574" lon="1.95208">
        <ele>95.31</ele>
        <time>2021-03-18T10:17:48Z</time>
      </trkpt>
      <trkpt lat="48.60572" lon="1.95193">
        <ele>95.79</ele>
        <time>2021-03-18T10:18:12Z</time>
      </trkpt>
      <trkpt lat="48.60578" lon="1.95164">
        <ele>96.75</ele>
        <time>2021-03-18T10:18:32Z</time>
      </trkpt>
      <trkpt lat="48.6059" lon="1.95136">
        <ele>96.27</ele>
        <time>2021-03-18T10:18:49Z</time>
      </trkpt>
      <trkpt lat="48.60606" lon="1.95111">
        <ele>96.27</ele>
        <time>2021-03-18T10:19:04Z</time>
      </trkpt>
      <trkpt lat="48.60617" lon="1.95083">
        <ele>95.79</ele>
        <time>2021-03-18T10:19:23Z</time>
      </trkpt>
      <trkpt lat="48.6063" lon="1.95061">
        <ele>95.79</ele>
        <time>2021-03-18T10:19:32Z</time>
      </trkpt>
      <trkpt lat="48.60642" lon="1.95038">
        <ele>95.79</ele>
        <time>2021-03-18T10:19:47Z</time>
      </trkpt>
      <trkpt lat="48.60654" lon="1.95021">
        <ele>95.79</ele>
        <time>2021-03-18T10:20:01Z</time>
      </trkpt>
      <trkpt lat="48.60656" lon="1.95012">
        <ele>95.31</ele>
        <time>2021-03-18T10:20:06Z</time>
      </trkpt>
      <trkpt lat="48.60661" lon="1.94985">
        <ele>95.31</ele>
        <time>2021-03-18T10:20:22Z</time>
      </trkpt>
      <trkpt lat="48.60649" lon="1.94974">
        <ele>95.79</ele>
        <time>2021-03-18T10:20:36Z</time>
      </trkpt>
      <trkpt lat="48.60629" lon="1.9498">
        <ele>95.79</ele>
        <time>2021-03-18T10:20:51Z</time>
      </trkpt>
      <trkpt lat="48.60611" lon="1.94987">
        <ele>96.27</ele>
        <time>2021-03-18T10:21:05Z</time>
      </trkpt>
      <trkpt lat="48.60592" lon="1.94999">
        <ele>96.27</ele>
        <time>2021-03-18T10:21:21Z</time>
      </trkpt>
      <trkpt lat="48.6058" lon="1.95005">
        <ele>96.75</ele>
        <time>2021-03-18T10:21:30Z</time>
      </trkpt>
      <trkpt lat="48.60564" lon="1.95013">
        <ele>96.75</ele>
        <time>2021-03-18T10:21:44Z</time>
      </trkpt>
      <trkpt lat="48.60561" lon="1.95014">
        <ele>96.75</ele>
        <time>2021-03-18T10:21:46Z</time>
      </trkpt>
      <trkpt lat="48.60537" lon="1.95029">
        <ele>97.71</ele>
        <time>2021-03-18T10:22:02Z</time>
      </trkpt>
      <trkpt lat="48.60518" lon="1.95041">
        <ele>98.19</ele>
        <time>2021-03-18T10:22:17Z</time>
      </trkpt>
      <trkpt lat="48.605" lon="1.95058">
        <ele>98.67</ele>
        <time>2021-03-18T10:22:36Z</time>
      </trkpt>
      <trkpt lat="48.60487" lon="1.95055">
        <ele>98.67</ele>
        <time>2021-03-18T10:22:46Z</time>
      </trkpt>
      <trkpt lat="48.60484" lon="1.95055">
        <ele>98.67</ele>
        <time>2021-03-18T10:22:48Z</time>
      </trkpt>
      <trkpt lat="48.60456" lon="1.9507">
        <ele>98.67</ele>
        <time>2021-03-18T10:23:07Z</time>
      </trkpt>
      <trkpt lat="48.60434" lon="1.95081">
        <ele>99.15</ele>
        <time>2021-03-18T10:23:23Z</time>
      </trkpt>
      <trkpt lat="48.60415" lon="1.95091">
        <ele>99.63</ele>
        <time>2021-03-18T10:23:40Z</time>
      </trkpt>
      <trkpt lat="48.60386" lon="1.95109">
        <ele>100.6</ele>
        <time>2021-03-18T10:23:58Z</time>
      </trkpt>
      <trkpt lat="48.60364" lon="1.95116">
        <ele>100.6</ele>
        <time>2021-03-18T10:24:16Z</time>
      </trkpt>
      <trkpt lat="48.6035" lon="1.95122">
        <ele>99.63</ele>
        <time>2021-03-18T10:24:29Z</time>
      </trkpt>
      <trkpt lat="48.60336" lon="1.95133">
        <ele>100.6</ele>
        <time>2021-03-18T10:24:41Z</time>
      </trkpt>
      <trkpt lat="48.60308" lon="1.9515">
        <ele>100.6</ele>
        <time>2021-03-18T10:24:57Z</time>
      </trkpt>
      <trkpt lat="48.60286" lon="1.9516">
        <ele>101.08</ele>
        <time>2021-03-18T10:25:14Z</time>
      </trkpt>
      <trkpt lat="48.60263" lon="1.95171">
        <ele>101.08</ele>
        <time>2021-03-18T10:25:32Z</time>
      </trkpt>
      <trkpt lat="48.60246" lon="1.95179">
        <ele>101.56</ele>
        <time>2021-03-18T10:25:45Z</time>
      </trkpt>
      <trkpt lat="48.60226" lon="1.95187">
        <ele>102.04</ele>
        <time>2021-03-18T10:25:59Z</time>
      </trkpt>
      <trkpt lat="48.60216" lon="1.9519">
        <ele>102.04</ele>
        <time>2021-03-18T10:26:07Z</time>
      </trkpt>
      <trkpt lat="48.60208" lon="1.95195">
        <ele>102.04</ele>
        <time>2021-03-18T10:26:15Z</time>
      </trkpt>
      <trkpt lat="48.602" lon="1.95199">
        <ele>102.04</ele>
        <time>2021-03-18T10:26:22Z</time>
      </trkpt>
      <trkpt lat="48.6019" lon="1.95206">
        <ele>102.04</ele>
        <time>2021-03-18T10:26:26Z</time>
      </trkpt>
      <trkpt lat="48.60183" lon="1.95212">
        <ele>102.04</ele>
        <time>2021-03-18T10:26:30Z</time>
      </trkpt>
      <trkpt lat="48.60161" lon="1.95226">
        <ele>101.56</ele>
        <time>2021-03-18T10:26:49Z</time>
      </trkpt>
      <trkpt lat="48.60136" lon="1.95237">
        <ele>101.56</ele>
        <time>2021-03-18T10:27:06Z</time>
      </trkpt>
      <trkpt lat="48.60116" lon="1.95244">
        <ele>102.04</ele>
        <time>2021-03-18T10:27:24Z</time>
      </trkpt>
      <trkpt lat="48.60101" lon="1.95253">
        <ele>101.56</ele>
        <time>2021-03-18T10:27:37Z</time>
      </trkpt>
      <trkpt lat="48.60079" lon="1.95278">
        <ele>100.6</ele>
        <time>2021-03-18T10:27:56Z</time>
      </trkpt>
      <trkpt lat="48.60067" lon="1.95305">
        <ele>100.11</ele>
        <time>2021-03-18T10:28:13Z</time>
      </trkpt>
      <trkpt lat="48.60043" lon="1.95316">
        <ele>101.08</ele>
        <time>2021-03-18T10:28:26Z</time>
      </trkpt>
      <trkpt lat="48.60032" lon="1.95335">
        <ele>102.52</ele>
        <time>2021-03-18T10:28:41Z</time>
      </trkpt>
      <trkpt lat="48.6002" lon="1.95364">
        <ele>101.56</ele>
        <time>2021-03-18T10:28:58Z</time>
      </trkpt>
      <trkpt lat="48.60009" lon="1.95388">
        <ele>101.08</ele>
        <time>2021-03-18T10:29:13Z</time>
      </trkpt>
      <trkpt lat="48.60008" lon="1.9539">
        <ele>101.08</ele>
        <time>2021-03-18T10:29:14Z</time>
      </trkpt>
      <trkpt lat="48.59992" lon="1.95423">
        <ele>101.56</ele>
        <time>2021-03-18T10:29:30Z</time>
      </trkpt>
      <trkpt lat="48.59983" lon="1.95441">
        <ele>103</ele>
        <time>2021-03-18T10:29:45Z</time>
      </trkpt>
      <trkpt lat="48.59967" lon="1.95476">
        <ele>104.44</ele>
        <time>2021-03-18T10:30:02Z</time>
      </trkpt>
      <trkpt lat="48.59953" lon="1.95508">
        <ele>105.88</ele>
        <time>2021-03-18T10:30:19Z</time>
      </trkpt>
      <trkpt lat="48.59938" lon="1.9554">
        <ele>108.77</ele>
        <time>2021-03-18T10:30:36Z</time>
      </trkpt>
      <trkpt lat="48.59926" lon="1.95564">
        <ele>109.73</ele>
        <time>2021-03-18T10:30:52Z</time>
      </trkpt>
      <trkpt lat="48.59918" lon="1.95579">
        <ele>110.21</ele>
        <time>2021-03-18T10:31:04Z</time>
      </trkpt>
      <trkpt lat="48.59905" lon="1.95617">
        <ele>110.69</ele>
        <time>2021-03-18T10:31:21Z</time>
      </trkpt>
      <trkpt lat="48.59894" lon="1.95641">
        <ele>110.69</ele>
        <time>2021-03-18T10:31:35Z</time>
      </trkpt>
      <trkpt lat="48.59878" lon="1.95667">
        <ele>111.17</ele>
        <time>2021-03-18T10:31:52Z</time>
      </trkpt>
      <trkpt lat="48.59863" lon="1.95704">
        <ele>112.13</ele>
        <time>2021-03-18T10:32:12Z</time>
      </trkpt>
      <trkpt lat="48.59851" lon="1.95728">
        <ele>112.13</ele>
        <time>2021-03-18T10:32:28Z</time>
      </trkpt>
      <trkpt lat="48.59839" lon="1.95755">
        <ele>112.61</ele>
        <time>2021-03-18T10:32:45Z</time>
      </trkpt>
      <trkpt lat="48.59824" lon="1.95789">
        <ele>113.57</ele>
        <time>2021-03-18T10:33:01Z</time>
      </trkpt>
      <trkpt lat="48.59811" lon="1.95812">
        <ele>114.05</ele>
        <time>2021-03-18T10:33:18Z</time>
      </trkpt>
      <trkpt lat="48.59796" lon="1.9584">
        <ele>115.01</ele>
        <time>2021-03-18T10:33:34Z</time>
      </trkpt>
      <trkpt lat="48.59784" lon="1.95876">
        <ele>115.5</ele>
        <time>2021-03-18T10:33:53Z</time>
      </trkpt>
      <trkpt lat="48.59773" lon="1.95894">
        <ele>115.98</ele>
        <time>2021-03-18T10:34:06Z</time>
      </trkpt>
      <trkpt lat="48.59756" lon="1.95925">
        <ele>117.42</ele>
        <time>2021-03-18T10:34:25Z</time>
      </trkpt>
      <trkpt lat="48.59745" lon="1.95945">
        <ele>117.9</ele>
        <time>2021-03-18T10:34:38Z</time>
      </trkpt>
      <trkpt lat="48.59729" lon="1.9598">
        <ele>119.34</ele>
        <time>2021-03-18T10:34:58Z</time>
      </trkpt>
      <trkpt lat="48.59718" lon="1.96012">
        <ele>120.3</ele>
        <time>2021-03-18T10:35:14Z</time>
      </trkpt>
      <trkpt lat="48.59708" lon="1.96034">
        <ele>120.78</ele>
        <time>2021-03-18T10:35:28Z</time>
      </trkpt>
      <trkpt lat="48.59695" lon="1.9606">
        <ele>122.22</ele>
        <time>2021-03-18T10:35:46Z</time>
      </trkpt>
      <trkpt lat="48.59684" lon="1.96083">
        <ele>124.15</ele>
        <time>2021-03-18T10:36:03Z</time>
      </trkpt>
      <trkpt lat="48.59672" lon="1.96112">
        <ele>127.03</ele>
        <time>2021-03-18T10:36:22Z</time>
      </trkpt>
      <trkpt lat="48.59667" lon="1.96122">
        <ele>127.51</ele>
        <time>2021-03-18T10:36:29Z</time>
      </trkpt>
      <trkpt lat="48.59652" lon="1.96149">
        <ele>129.43</ele>
        <time>2021-03-18T10:36:47Z</time>
      </trkpt>
      <trkpt lat="48.59642" lon="1.96172">
        <ele>131.84</ele>
        <time>2021-03-18T10:37:03Z</time>
      </trkpt>
      <trkpt lat="48.59635" lon="1.96188">
        <ele>133.76</ele>
        <time>2021-03-18T10:37:15Z</time>
      </trkpt>
      <trkpt lat="48.59623" lon="1.96215">
        <ele>136.64</ele>
        <time>2021-03-18T10:37:31Z</time>
      </trkpt>
      <trkpt lat="48.59616" lon="1.96236">
        <ele>139.53</ele>
        <time>2021-03-18T10:37:46Z</time>
      </trkpt>
      <trkpt lat="48.59608" lon="1.96254">
        <ele>142.41</ele>
        <time>2021-03-18T10:38:01Z</time>
      </trkpt>
      <trkpt lat="48.59599" lon="1.9627">
        <ele>144.34</ele>
        <time>2021-03-18T10:38:17Z</time>
      </trkpt>
      <trkpt lat="48.59592" lon="1.96281">
        <ele>145.78</ele>
        <time>2021-03-18T10:38:33Z</time>
      </trkpt>
      <trkpt lat="48.5958" lon="1.96303">
        <ele>146.26</ele>
        <time>2021-03-18T10:38:50Z</time>
      </trkpt>
      <trkpt lat="48.59567" lon="1.96332">
        <ele>146.26</ele>
        <time>2021-03-18T10:39:06Z</time>
      </trkpt>
      <trkpt lat="48.59551" lon="1.96365">
        <ele>144.82</ele>
        <time>2021-03-18T10:39:25Z</time>
      </trkpt>
      <trkpt lat="48.59549" lon="1.9637">
        <ele>144.82</ele>
        <time>2021-03-18T10:39:28Z</time>
      </trkpt>
      <trkpt lat="48.59547" lon="1.96376">
        <ele>144.82</ele>
        <time>2021-03-18T10:39:31Z</time>
      </trkpt>
      <trkpt lat="48.59531" lon="1.96408">
        <ele>142.41</ele>
        <time>2021-03-18T10:39:50Z</time>
      </trkpt>
      <trkpt lat="48.59518" lon="1.96437">
        <ele>140.97</ele>
        <time>2021-03-18T10:40:04Z</time>
      </trkpt>
      <trkpt lat="48.59504" lon="1.96466">
        <ele>139.05</ele>
        <time>2021-03-18T10:40:22Z</time>
      </trkpt>
      <trkpt lat="48.59493" lon="1.96491">
        <ele>137.61</ele>
        <time>2021-03-18T10:40:41Z</time>
      </trkpt>
      <trkpt lat="48.59481" lon="1.96516">
        <ele>135.68</ele>
        <time>2021-03-18T10:40:57Z</time>
      </trkpt>
      <trkpt lat="48.59471" lon="1.96541">
        <ele>133.76</ele>
        <time>2021-03-18T10:41:13Z</time>
      </trkpt>
      <trkpt lat="48.59456" lon="1.96571">
        <ele>133.76</ele>
        <time>2021-03-18T10:41:27Z</time>
      </trkpt>
      <trkpt lat="48.59453" lon="1.96577">
        <ele>133.28</ele>
        <time>2021-03-18T10:41:30Z</time>
      </trkpt>
      <trkpt lat="48.59441" lon="1.96601">
        <ele>133.76</ele>
        <time>2021-03-18T10:41:42Z</time>
      </trkpt>
      <trkpt lat="48.59429" lon="1.96607">
        <ele>133.28</ele>
        <time>2021-03-18T10:41:54Z</time>
      </trkpt>
      <trkpt lat="48.59416" lon="1.96592">
        <ele>131.36</ele>
        <time>2021-03-18T10:42:09Z</time>
      </trkpt>
      <trkpt lat="48.59401" lon="1.96576">
        <ele>129.43</ele>
        <time>2021-03-18T10:42:24Z</time>
      </trkpt>
      <trkpt lat="48.59394" lon="1.9657">
        <ele>127.99</ele>
        <time>2021-03-18T10:42:32Z</time>
      </trkpt>
      <trkpt lat="48.59375" lon="1.9655">
        <ele>125.59</ele>
        <time>2021-03-18T10:42:48Z</time>
      </trkpt>
      <trkpt lat="48.5936" lon="1.96536">
        <ele>123.67</ele>
        <time>2021-03-18T10:43:06Z</time>
      </trkpt>
      <trkpt lat="48.59342" lon="1.96517">
        <ele>122.71</ele>
        <time>2021-03-18T10:43:20Z</time>
      </trkpt>
      <trkpt lat="48.59329" lon="1.96505">
        <ele>121.26</ele>
        <time>2021-03-18T10:43:39Z</time>
      </trkpt>
      <trkpt lat="48.59316" lon="1.965">
        <ele>119.82</ele>
        <time>2021-03-18T10:43:52Z</time>
      </trkpt>
      <trkpt lat="48.59304" lon="1.96495">
        <ele>117.42</ele>
        <time>2021-03-18T10:44:06Z</time>
      </trkpt>
      <trkpt lat="48.59274" lon="1.96491">
        <ele>115.01</ele>
        <time>2021-03-18T10:44:22Z</time>
      </trkpt>
      <trkpt lat="48.59254" lon="1.96499">
        <ele>112.61</ele>
        <time>2021-03-18T10:44:40Z</time>
      </trkpt>
      <trkpt lat="48.59241" lon="1.96515">
        <ele>110.69</ele>
        <time>2021-03-18T10:44:56Z</time>
      </trkpt>
      <trkpt lat="48.59221" lon="1.96537">
        <ele>108.29</ele>
        <time>2021-03-18T10:45:14Z</time>
      </trkpt>
      <trkpt lat="48.5922" lon="1.96539">
        <ele>108.29</ele>
        <time>2021-03-18T10:45:16Z</time>
      </trkpt>
      <trkpt lat="48.59212" lon="1.96546">
        <ele>107.81</ele>
        <time>2021-03-18T10:45:25Z</time>
      </trkpt>
      <trkpt lat="48.59195" lon="1.96569">
        <ele>107.32</ele>
        <time>2021-03-18T10:45:43Z</time>
      </trkpt>
      <trkpt lat="48.59183" lon="1.96587">
        <ele>106.84</ele>
        <time>2021-03-18T10:45:59Z</time>
      </trkpt>
      <trkpt lat="48.59176" lon="1.96618">
        <ele>106.36</ele>
        <time>2021-03-18T10:46:14Z</time>
      </trkpt>
      <trkpt lat="48.59177" lon="1.96618">
        <ele>106.84</ele>
        <time>2021-03-18T10:46:27Z</time>
      </trkpt>
      <trkpt lat="48.59177" lon="1.96619">
        <ele>106.36</ele>
        <time>2021-03-18T10:46:51Z</time>
      </trkpt>
    </trkseg>
  </trk>
</gpx>